Observation data for Happy on 04/24/2019      Previous  Date  Next       Current Mesonet Observations  Soil Data  Daily Summary Page  Observations in Plain Language
KHA2 240500Z 01006KT 07/05 A3009 RMK A01 T00680053  RH  090%=      5-min Rain = 0
KHA2 240501Z 01007KT 07/05 A3008 RMK A01 T00680054  RH  091%=      5-min Rain = 0
KHA2 240502Z 01006KT 07/05 A3008 RMK A01 T00680054  RH  091%=      5-min Rain = 0
KHA2 240503Z 01007KT 07/05 A3009 RMK A01 T00680054  RH  091%=      5-min Rain = 0
KHA2 240504Z 01006KT 07/05 A3009 RMK A01 T00670054  RH  091%=      5-min Rain = 0
KHA2 240505Z 01006KT 07/05 A3009 RMK A01 T00680054  RH  091%=      5-min Rain = 0
KHA2 240506Z 02006KT 07/05 A3009 RMK A01 T00680054  RH  091%=      5-min Rain = 0
KHA2 240507Z 03005KT 07/06 A3009 RMK A01 T00690055  RH  091%=      5-min Rain = 0
KHA2 240508Z 03005KT 07/06 A3009 RMK A01 T00700056  RH  090%=      5-min Rain = 0
KHA2 240509Z 03005KT 07/06 A3009 RMK A01 T00710055  RH  090%=      5-min Rain = 0
KHA2 240510Z 04005KT 07/06 A3009 RMK A01 T00710055  RH  090%=      5-min Rain = 0
KHA2 240511Z 04005KT 07/06 A3009 RMK A01 T00710055  RH  090%=      5-min Rain = 0
KHA2 240512Z 04004KT 07/05 A3009 RMK A01 T00700054  RH  090%=      5-min Rain = 0
KHA2 240513Z 05005KT 07/05 A3009 RMK A01 T00690053  RH  090%=      5-min Rain = 0
KHA2 240514Z 05004KT 07/05 A3009 RMK A01 T00680052  RH  089%=      5-min Rain = 0
KHA2 240515Z 05004KT 07/05 A3009 RMK A01 T00670052  RH  090%=      5-min Rain = 0
KHA2 240516Z 05004KT 07/05 A3009 RMK A01 T00670052  RH  090%=      5-min Rain = 0
KHA2 240517Z 05004KT 07/05 A3009 RMK A01 T00660053  RH  091%=      5-min Rain = 0
KHA2 240518Z 04004KT 07/05 A3009 RMK A01 T00660054  RH  092%=      5-min Rain = 0
KHA2 240519Z 03005KT 07/05 A3009 RMK A01 T00660054  RH  092%=      5-min Rain = 0
KHA2 240520Z 03005KT 07/05 A3008 RMK A01 T00660054  RH  093%=      5-min Rain = 0
KHA2 240521Z 03006KT 06/05 A3008 RMK A01 T00640053  RH  092%=      5-min Rain = 0
KHA2 240522Z 03006KT 06/05 A3008 RMK A01 T00630052  RH  093%=      5-min Rain = 0
KHA2 240523Z 03006KT 06/05 A3008 RMK A01 T00620052  RH  093%=      5-min Rain = 0
KHA2 240524Z 03006KT 06/05 A3008 RMK A01 T00610052  RH  093%=      5-min Rain = 0
KHA2 240525Z 03006KT 06/05 A3008 RMK A01 T00610051  RH  094%=      5-min Rain = 0
KHA2 240526Z 03006KT 06/05 A3007 RMK A01 T00600051  RH  094%=      5-min Rain = 0
KHA2 240527Z 03006KT 06/05 A3007 RMK A01 T00600051  RH  094%=      5-min Rain = 0
KHA2 240528Z 03006KT 06/05 A3007 RMK A01 T00600052  RH  094%=      5-min Rain = 0
KHA2 240529Z 02006KT 06/05 A3007 RMK A01 T00610052  RH  094%=      5-min Rain = 0
KHA2 240530Z 02007KT 06/05 A3007 RMK A01 T00610053  RH  094%=      5-min Rain = 0
KHA2 240531Z 02007KT 06/05 A3007 RMK A01 T00620053  RH  094%=      5-min Rain = 0
KHA2 240532Z 02007KT 06/05 A3007 RMK A01 T00620052  RH  093%=      5-min Rain = 0
KHA2 240533Z 02007KT 06/05 A3006 RMK A01 T00630052  RH  093%=      5-min Rain = 0
KHA2 240534Z 02008KT 06/05 A3006 RMK A01 T00640053  RH  093%=      5-min Rain = 0
KHA2 240535Z 01007KT 06/05 A3006 RMK A01 T00640052  RH  092%=      5-min Rain = 0
KHA2 240536Z 01007KT 07/05 A3006 RMK A01 T00650052  RH  091%=      5-min Rain = 0
KHA2 240537Z 02007KT 07/05 A3006 RMK A01 T00660051  RH  091%=      5-min Rain = 0
KHA2 240538Z 02007KT 07/05 A3007 RMK A01 T00660051  RH  090%=      5-min Rain = 0
KHA2 240539Z 02006KT 07/05 A3007 RMK A01 T00670051  RH  090%=      5-min Rain = 0
KHA2 240540Z 01006KT 07/05 A3007 RMK A01 T00670050  RH  089%=      5-min Rain = 0
KHA2 240541Z 01007KT 07/05 A3007 RMK A01 T00670050  RH  089%=      5-min Rain = 0
KHA2 240542Z 01007KT 07/05 A3007 RMK A01 T00670049  RH  088%=      5-min Rain = 0
KHA2 240543Z 00007KT 07/05 A3007 RMK A01 T00670049  RH  088%=      5-min Rain = 0
KHA2 240544Z 00007KT 07/05 A3007 RMK A01 T00680049  RH  088%=      5-min Rain = 0
KHA2 240545Z 35006KT 07/05 A3007 RMK A01 T00670049  RH  088%=      5-min Rain = 0
KHA2 240546Z 35007KT 07/05 A3007 RMK A01 T00670049  RH  089%=      5-min Rain = 0
KHA2 240547Z 36008KT 07/05 A3006 RMK A01 T00650048  RH  089%=      5-min Rain = 0
KHA2 240548Z 35008KT 06/05 A3006 RMK A01 T00640048  RH  089%=      5-min Rain = 0
KHA2 240549Z 35008KT 06/05 A3006 RMK A01 T00640047  RH  089%=      5-min Rain = 0
KHA2 240550Z 35008KT 06/05 A3006 RMK A01 T00630047  RH  089%=      5-min Rain = 0
KHA2 240551Z 34009KT 06/05 A3006 RMK A01 T00620047  RH  090%=      5-min Rain = 0
KHA2 240552Z 34009KT 06/05 A3006 RMK A01 T00620047  RH  090%=      5-min Rain = 0
KHA2 240553Z 34008KT 06/05 A3006 RMK A01 T00620047  RH  090%=      5-min Rain = 0
KHA2 240554Z 34008KT 06/05 A3006 RMK A01 T00620047  RH  090%=      5-min Rain = 0
KHA2 240555Z 34008KT 06/05 A3006 RMK A01 T00620046  RH  090%=      5-min Rain = 0
KHA2 240556Z 34008KT 06/05 A3006 RMK A01 T00620046  RH  090%=      5-min Rain = 0
KHA2 240557Z 34008KT 06/05 A3006 RMK A01 T00620046  RH  090%=      5-min Rain = 0
KHA2 240558Z 34007KT 06/05 A3006 RMK A01 T00620046  RH  089%=      5-min Rain = 0
KHA2 240559Z 33007KT 06/05 A3006 RMK A01 T00630046  RH  089%=      5-min Rain = 0
KHA2 240600Z 33007KT 06/05 A3006 RMK A01 T00620046  RH  089%=      5-min Rain = 0
KHA2 240601Z 33007KT 06/05 A3006 RMK A01 T00620046  RH  089%=      5-min Rain = 0
KHA2 240602Z 33007KT 06/05 A3006 RMK A01 T00630047  RH  090%=      5-min Rain = 0
KHA2 240603Z 33007KT 06/05 A3006 RMK A01 T00630047  RH  090%=      5-min Rain = 0
KHA2 240604Z 33007KT 06/05 A3006 RMK A01 T00620047  RH  090%=      5-min Rain = 0
KHA2 240605Z 33007KT 06/05 A3006 RMK A01 T00620047  RH  090%=      5-min Rain = 0
KHA2 240606Z 33007KT 06/05 A3006 RMK A01 T00620047  RH  090%=      5-min Rain = 0
KHA2 240607Z 33008KT 06/05 A3006 RMK A01 T00620047  RH  090%=      5-min Rain = 0
KHA2 240608Z 33008KT 06/05 A3006 RMK A01 T00620047  RH  090%=      5-min Rain = 0
KHA2 240609Z 33008KT 06/05 A3005 RMK A01 T00620047  RH  090%=      5-min Rain = 0
KHA2 240610Z 33008KT 06/05 A3005 RMK A01 T00620047  RH  090%=      5-min Rain = 0
KHA2 240611Z 33008KT 06/05 A3005 RMK A01 T00620047  RH  090%=      5-min Rain = 0
KHA2 240612Z 33008KT 06/05 A3005 RMK A01 T00620047  RH  090%=      5-min Rain = 0
KHA2 240613Z 33008KT 06/05 A3005 RMK A01 T00620047  RH  090%=      5-min Rain = 0
KHA2 240614Z 33008KT 06/05 A3005 RMK A01 T00620047  RH  090%=      5-min Rain = 0
KHA2 240615Z 33008KT 06/05 A3005 RMK A01 T00620046  RH  090%=      5-min Rain = 0
KHA2 240616Z 33008KT 06/05 A3005 RMK A01 T00620046  RH  090%=      5-min Rain = 0
KHA2 240617Z 33008KT 06/05 A3005 RMK A01 T00620046  RH  090%=      5-min Rain = 0
KHA2 240618Z 33008KT 06/05 A3005 RMK A01 T00610045  RH  089%=      5-min Rain = 0
KHA2 240619Z 33008KT 06/05 A3005 RMK A01 T00620045  RH  089%=      5-min Rain = 0
KHA2 240620Z 33008KT 06/05 A3005 RMK A01 T00610045  RH  089%=      5-min Rain = 0
KHA2 240621Z 33008KT 06/05 A3005 RMK A01 T00610045  RH  089%=      5-min Rain = 0
KHA2 240622Z 33008KT 06/05 A3005 RMK A01 T00610045  RH  089%=      5-min Rain = 0
KHA2 240623Z 33008KT 06/04 A3005 RMK A01 T00610044  RH  089%=      5-min Rain = 0
KHA2 240624Z 34007KT 06/04 A3005 RMK A01 T00610044  RH  089%=      5-min Rain = 0
KHA2 240625Z 33008KT 06/04 A3005 RMK A01 T00610044  RH  089%=      5-min Rain = 0
KHA2 240626Z 34008KT 06/04 A3004 RMK A01 T00610044  RH  089%=      5-min Rain = 0
KHA2 240627Z 34008KT 06/04 A3004 RMK A01 T00610044  RH  089%=      5-min Rain = 0
KHA2 240628Z 34008KT 06/04 A3004 RMK A01 T00600044  RH  089%=      5-min Rain = 0
KHA2 240629Z 33009KT 06/04 A3004 RMK A01 T00600044  RH  089%=      5-min Rain = 0
KHA2 240630Z 33008KT 06/04 A3004 RMK A01 T00600044  RH  089%=      5-min Rain = 0
KHA2 240631Z 34008KT 06/04 A3004 RMK A01 T00600043  RH  089%=      5-min Rain = 0
KHA2 240632Z 34008KT 06/04 A3004 RMK A01 T00600043  RH  089%=      5-min Rain = 0
KHA2 240633Z 34009KT 06/04 A3003 RMK A01 T00600043  RH  089%=      5-min Rain = 0
KHA2 240634Z 34009KT 06/04 A3003 RMK A01 T00600043  RH  089%=      5-min Rain = 0
KHA2 240635Z 34009KT 06/04 A3003 RMK A01 T00590043  RH  089%=      5-min Rain = 0
KHA2 240636Z 34008KT 06/04 A3003 RMK A01 T00600042  RH  089%=      5-min Rain = 0
KHA2 240637Z 34008KT 06/04 A3003 RMK A01 T00590042  RH  089%=      5-min Rain = 0
KHA2 240638Z 34007KT 06/04 A3003 RMK A01 T00590041  RH  088%=      5-min Rain = 0
KHA2 240639Z 34007KT 06/04 A3003 RMK A01 T00600041  RH  088%=      5-min Rain = 0
KHA2 240640Z 33006KT 06/04 A3003 RMK A01 T00590041  RH  088%=      5-min Rain = 0
KHA2 240641Z 34006KT 06/04 A3003 RMK A01 T00590041  RH  088%=      5-min Rain = 0
KHA2 240642Z 33005KT 06/04 A3003 RMK A01 T00590041  RH  088%=      5-min Rain = 0
KHA2 240643Z 33005KT 06/04 A3003 RMK A01 T00590041  RH  089%=      5-min Rain = 0
KHA2 240644Z 33005KT 06/04 A3003 RMK A01 T00590042  RH  089%=      5-min Rain = 0
KHA2 240645Z 33005KT 06/04 A3003 RMK A01 T00580041  RH  089%=      5-min Rain = 0
KHA2 240646Z 33005KT 06/04 A3003 RMK A01 T00580041  RH  089%=      5-min Rain = 0
KHA2 240647Z 33006KT 06/04 A3004 RMK A01 T00580041  RH  089%=      5-min Rain = 0
KHA2 240648Z 33005KT 06/04 A3004 RMK A01 T00580041  RH  089%=      5-min Rain = 0
KHA2 240649Z 33005KT 06/04 A3004 RMK A01 T00580041  RH  089%=      5-min Rain = 0
KHA2 240650Z 33005KT 06/04 A3004 RMK A01 T00580040  RH  089%=      5-min Rain = 0
KHA2 240651Z 33006KT 06/04 A3004 RMK A01 T00580040  RH  089%=      5-min Rain = 0
KHA2 240652Z 33006KT 06/04 A3004 RMK A01 T00580041  RH  089%=      5-min Rain = 0
KHA2 240653Z 33006KT 06/04 A3004 RMK A01 T00580041  RH  088%=      5-min Rain = 0
KHA2 240654Z 33006KT 06/04 A3004 RMK A01 T00580040  RH  088%=      5-min Rain = 0
KHA2 240655Z 33007KT 06/04 A3004 RMK A01 T00580040  RH  088%=      5-min Rain = 0
KHA2 240656Z 34007KT 06/04 A3004 RMK A01 T00580040  RH  088%=      5-min Rain = 0
KHA2 240657Z 33007KT 06/04 A3004 RMK A01 T00580040  RH  088%=      5-min Rain = 0
KHA2 240658Z 33007KT 06/04 A3003 RMK A01 T00580040  RH  088%=      5-min Rain = 0
KHA2 240659Z 33007KT 06/04 A3003 RMK A01 T00580040  RH  088%=      5-min Rain = 0
KHA2 240700Z 33007KT 06/04 A3003 RMK A01 T00590040  RH  088%=      5-min Rain = 0
KHA2 240701Z 33006KT 06/04 A3003 RMK A01 T00580040  RH  088%=      5-min Rain = 0
KHA2 240702Z 33006KT 06/04 A3003 RMK A01 T00580040  RH  088%=      5-min Rain = 0
KHA2 240703Z 33006KT 06/04 A3003 RMK A01 T00590040  RH  088%=      5-min Rain = 0
KHA2 240704Z 33005KT 06/04 A3003 RMK A01 T00580040  RH  088%=      5-min Rain = 0
KHA2 240705Z 33006KT 06/04 A3003 RMK A01 T00570040  RH  088%=      5-min Rain = 0
KHA2 240706Z 33006KT 06/04 A3003 RMK A01 T00570040  RH  088%=      5-min Rain = 0
KHA2 240707Z 33006KT 06/04 A3003 RMK A01 T00570039  RH  089%=      5-min Rain = 0
KHA2 240708Z 33006KT 06/04 A3003 RMK A01 T00560039  RH  089%=      5-min Rain = 0
KHA2 240709Z 33007KT 06/04 A3003 RMK A01 T00560040  RH  089%=      5-min Rain = 0
KHA2 240710Z 33007KT 06/04 A3003 RMK A01 T00560040  RH  089%=      5-min Rain = 0
KHA2 240711Z 33007KT 06/04 A3003 RMK A01 T00560040  RH  089%=      5-min Rain = 0
KHA2 240712Z 33007KT 06/04 A3002 RMK A01 T00560040  RH  089%=      5-min Rain = 0
KHA2 240713Z 33007KT 06/04 A3002 RMK A01 T00560040  RH  089%=      5-min Rain = 0
KHA2 240714Z 33007KT 06/04 A3002 RMK A01 T00560039  RH  089%=      5-min Rain = 0
KHA2 240715Z 33006KT 06/04 A3002 RMK A01 T00560039  RH  089%=      5-min Rain = 0
KHA2 240716Z 33007KT 06/04 A3002 RMK A01 T00560040  RH  089%=      5-min Rain = 0
KHA2 240717Z 33007KT 06/04 A3002 RMK A01 T00560039  RH  089%=      5-min Rain = 0
KHA2 240718Z 33007KT 06/04 A3002 RMK A01 T00560039  RH  089%=      5-min Rain = 0
KHA2 240719Z 33007KT 06/04 A3002 RMK A01 T00560039  RH  089%=      5-min Rain = 0
KHA2 240720Z 33006KT 06/04 A3002 RMK A01 T00560039  RH  089%=      5-min Rain = 0
KHA2 240721Z 33007KT 06/04 A3002 RMK A01 T00550039  RH  089%=      5-min Rain = 0
KHA2 240722Z 33007KT 06/04 A3002 RMK A01 T00550039  RH  089%=      5-min Rain = 0
KHA2 240723Z 33008KT 06/04 A3002 RMK A01 T00550038  RH  089%=      5-min Rain = 0
KHA2 240724Z 33008KT 06/04 A3002 RMK A01 T00550038  RH  089%=      5-min Rain = 0
KHA2 240725Z 33007KT 06/04 A3002 RMK A01 T00550038  RH  089%=      5-min Rain = 0
KHA2 240726Z 34007KT 06/04 A3002 RMK A01 T00550039  RH  089%=      5-min Rain = 0
KHA2 240727Z 34007KT 06/04 A3001 RMK A01 T00550039  RH  089%=      5-min Rain = 0
KHA2 240728Z 34007KT 05/04 A3001 RMK A01 T00540038  RH  089%=      5-min Rain = 0
KHA2 240729Z 34008KT 05/04 A3001 RMK A01 T00540038  RH  089%=      5-min Rain = 0
KHA2 240730Z 34007KT 05/04 A3001 RMK A01 T00540038  RH  089%=      5-min Rain = 0
KHA2 240731Z 34007KT 05/04 A3001 RMK A01 T00540039  RH  089%=      5-min Rain = 0
KHA2 240732Z 34008KT 05/04 A3001 RMK A01 T00540038  RH  089%=      5-min Rain = 0
KHA2 240733Z 34008KT 06/04 A3001 RMK A01 T00550038  RH  089%=      5-min Rain = 0
KHA2 240734Z 34008KT 06/04 A3001 RMK A01 T00550038  RH  089%=      5-min Rain = 0
KHA2 240735Z 34008KT 06/04 A3001 RMK A01 T00560038  RH  088%=      5-min Rain = 0
KHA2 240736Z 34009KT 06/04 A3001 RMK A01 T00560038  RH  088%=      5-min Rain = 0
KHA2 240737Z 34008KT 06/04 A3001 RMK A01 T00570038  RH  088%=      5-min Rain = 0
KHA2 240738Z 34008KT 06/04 A3001 RMK A01 T00570038  RH  088%=      5-min Rain = 0
KHA2 240739Z 34009KT 06/04 A3001 RMK A01 T00570038  RH  088%=      5-min Rain = 0
KHA2 240740Z 34009KT 06/04 A3001 RMK A01 T00570038  RH  088%=      5-min Rain = 0
KHA2 240741Z 34009KT 06/04 A3001 RMK A01 T00570038  RH  088%=      5-min Rain = 0
KHA2 240742Z 34009KT 06/04 A3001 RMK A01 T00570038  RH  088%=      5-min Rain = 0
KHA2 240743Z 34009KT 06/04 A3001 RMK A01 T00570038  RH  088%=      5-min Rain = 0
KHA2 240744Z 34008KT 06/04 A3001 RMK A01 T00570039  RH  088%=      5-min Rain = 0
KHA2 240745Z 34008KT 06/04 A3001 RMK A01 T00570038  RH  088%=      5-min Rain = 0
KHA2 240746Z 34008KT 06/04 A3001 RMK A01 T00570038  RH  088%=      5-min Rain = 0
KHA2 240747Z 34007KT 06/04 A3001 RMK A01 T00570038  RH  087%=      5-min Rain = 0
KHA2 240748Z 34007KT 06/04 A3001 RMK A01 T00580038  RH  087%=      5-min Rain = 0
KHA2 240749Z 34007KT 06/04 A3001 RMK A01 T00580038  RH  087%=      5-min Rain = 0
KHA2 240750Z 34007KT 06/04 A3001 RMK A01 T00580038  RH  087%=      5-min Rain = 0
KHA2 240751Z 34007KT 06/04 A3001 RMK A01 T00580038  RH  087%=      5-min Rain = 0
KHA2 240752Z 34006KT 06/04 A3001 RMK A01 T00580038  RH  087%=      5-min Rain = 0
KHA2 240753Z 34006KT 06/04 A3001 RMK A01 T00580038  RH  087%=      5-min Rain = 0
KHA2 240754Z 34006KT 06/04 A3001 RMK A01 T00580038  RH  087%=      5-min Rain = 0
KHA2 240755Z 33006KT 06/04 A3001 RMK A01 T00580038  RH  087%=      5-min Rain = 0
KHA2 240756Z 34006KT 06/04 A3001 RMK A01 T00580039  RH  087%=      5-min Rain = 0
KHA2 240757Z 34006KT 06/04 A3001 RMK A01 T00580039  RH  088%=      5-min Rain = 0
KHA2 240758Z 34007KT 06/04 A3001 RMK A01 T00580039  RH  087%=      5-min Rain = 0
KHA2 240759Z 34006KT 06/04 A3001 RMK A01 T00580038  RH  087%=      5-min Rain = 0
KHA2 240800Z 34006KT 06/04 A3001 RMK A01 T00590038  RH  087%=      5-min Rain = 0
KHA2 240801Z 34006KT 06/04 A3001 RMK A01 T00590038  RH  087%=      5-min Rain = 0
KHA2 240802Z 34005KT 06/04 A3001 RMK A01 T00590038  RH  087%=      5-min Rain = 0
KHA2 240803Z 34005KT 06/04 A3001 RMK A01 T00590038  RH  087%=      5-min Rain = 0
KHA2 240804Z 34005KT 06/04 A3001 RMK A01 T00580038  RH  087%=      5-min Rain = 0
KHA2 240805Z 34004KT 06/04 A3001 RMK A01 T00580038  RH  087%=      5-min Rain = 0
KHA2 240806Z 34003KT 06/04 A3001 RMK A01 T00570038  RH  087%=      5-min Rain = 0
KHA2 240807Z 35003KT 06/04 A3001 RMK A01 T00560037  RH  088%=      5-min Rain = 0
KHA2 240808Z 35002KT 06/04 A3001 RMK A01 T00560037  RH  088%=      5-min Rain = 0
KHA2 240809Z 34002KT 06/04 A3001 RMK A01 T00560037  RH  088%=      5-min Rain = 0
KHA2 240810Z 36001KT 06/04 A3001 RMK A01 T00560038  RH  088%=      5-min Rain = 0
KHA2 240811Z 36001KT 06/04 A3001 RMK A01 T00560038  RH  088%=      5-min Rain = 0
KHA2 240812Z 04001KT 06/04 A3001 RMK A01 T00560038  RH  088%=      5-min Rain = 0
KHA2 240813Z 05000KT 06/04 A3001 RMK A01 T00560038  RH  088%=      5-min Rain = 0
KHA2 240814Z 07001KT 06/04 A3001 RMK A01 T00560038  RH  088%=      5-min Rain = 0
KHA2 240815Z 07000KT 06/04 A3001 RMK A01 T00570037  RH  087%=      5-min Rain = 0
KHA2 240816Z 09001KT 06/04 A3001 RMK A01 T00550035  RH  087%=      5-min Rain = 0
KHA2 240817Z 09001KT 05/03 A3001 RMK A01 T00530033  RH  087%=      5-min Rain = 0
KHA2 240818Z 07001KT 05/03 A3001 RMK A01 T00510032  RH  087%=      5-min Rain = 0
KHA2 240819Z 35001KT 05/03 A3001 RMK A01 T00500032  RH  088%=      5-min Rain = 0
KHA2 240820Z 03001KT 05/04 A3001 RMK A01 T00500035  RH  090%=      5-min Rain = 0
KHA2 240821Z 34001KT 05/03 A3001 RMK A01 T00510034  RH  089%=      5-min Rain = 0
KHA2 240822Z 35000KT 05/03 A3001 RMK A01 T00510034  RH  089%=      5-min Rain = 0
KHA2 240823Z 35001KT 05/03 A3001 RMK A01 T00510034  RH  089%=      5-min Rain = 0
KHA2 240824Z 35001KT 05/03 A3001 RMK A01 T00500033  RH  089%=      5-min Rain = 0
KHA2 240825Z 33001KT 05/03 A3001 RMK A01 T00490033  RH  089%=      5-min Rain = 0
KHA2 240826Z 33001KT 05/03 A3001 RMK A01 T00490033  RH  089%=      5-min Rain = 0
KHA2 240827Z 33001KT 05/03 A3001 RMK A01 T00470031  RH  089%=      5-min Rain = 0
KHA2 240828Z 33002KT 05/03 A3001 RMK A01 T00450029  RH  089%=      5-min Rain = 0
KHA2 240829Z 34002KT 04/03 A3001 RMK A01 T00430029  RH  090%=      5-min Rain = 0
KHA2 240830Z 33002KT 04/03 A3001 RMK A01 T00420029  RH  091%=      5-min Rain = 0
KHA2 240831Z 34002KT 04/03 A3001 RMK A01 T00420029  RH  092%=      5-min Rain = 0
KHA2 240832Z 33002KT 04/03 A3001 RMK A01 T00420030  RH  092%=      5-min Rain = 0
KHA2 240833Z 32001KT 04/03 A3001 RMK A01 T00420031  RH  093%=      5-min Rain = 0
KHA2 240834Z 32001KT 04/03 A3001 RMK A01 T00410031  RH  093%=      5-min Rain = 0
KHA2 240835Z 00000KT 04/03 A3001 RMK A01 T00420031  RH  093%=      5-min Rain = 0
KHA2 240836Z 00000KT 04/03 A3001 RMK A01 T00420032  RH  093%=      5-min Rain = 0
KHA2 240837Z 19000KT 04/03 A3001 RMK A01 T00420032  RH  093%=      5-min Rain = 0
KHA2 240838Z 18003KT 04/03 A3001 RMK A01 T00430033  RH  094%=      5-min Rain = 0
KHA2 240839Z 17004KT 04/03 A3001 RMK A01 T00420030  RH  092%=      5-min Rain = 0
KHA2 240840Z 17005KT 04/03 A3001 RMK A01 T00390025  RH  091%=      5-min Rain = 0
KHA2 240841Z 17006KT 04/02 A3001 RMK A01 T00350022  RH  091%=      5-min Rain = 0
KHA2 240842Z 17006KT 03/02 A3001 RMK A01 T00330020  RH  091%=      5-min Rain = 0
KHA2 240843Z 17006KT 03/02 A3001 RMK A01 T00320020  RH  092%=      5-min Rain = 0
KHA2 240844Z 18005KT 03/02 A3001 RMK A01 T00310021  RH  093%=      5-min Rain = 0
KHA2 240845Z 18004KT 03/02 A3001 RMK A01 T00330024  RH  094%=      5-min Rain = 0
KHA2 240846Z 19004KT 04/03 A3001 RMK A01 T00350027  RH  095%=      5-min Rain = 0
KHA2 240847Z 20002KT 04/03 A3001 RMK A01 T00360029  RH  095%=      5-min Rain = 0
KHA2 240848Z 23001KT 04/03 A3001 RMK A01 T00370029  RH  095%=      5-min Rain = 0
KHA2 240849Z 26001KT 04/03 A3001 RMK A01 T00380029  RH  094%=      5-min Rain = 0
KHA2 240850Z 25000KT 04/03 A3001 RMK A01 T00380029  RH  094%=      5-min Rain = 0
KHA2 240851Z 30001KT 04/03 A3001 RMK A01 T00380029  RH  094%=      5-min Rain = 0
KHA2 240852Z 31001KT 04/03 A3001 RMK A01 T00390029  RH  094%=      5-min Rain = 0
KHA2 240853Z 32002KT 04/03 A3001 RMK A01 T00390030  RH  093%=      5-min Rain = 0
KHA2 240854Z 32002KT 04/03 A3001 RMK A01 T00400030  RH  093%=      5-min Rain = 0
KHA2 240855Z 32002KT 04/03 A3001 RMK A01 T00410031  RH  093%=      5-min Rain = 0
KHA2 240856Z 32002KT 04/03 A3001 RMK A01 T00430033  RH  093%=      5-min Rain = 0
KHA2 240857Z 30002KT 04/03 A3001 RMK A01 T00440033  RH  093%=      5-min Rain = 0
KHA2 240858Z 30001KT 04/03 A3001 RMK A01 T00440032  RH  092%=      5-min Rain = 0
KHA2 240859Z 28001KT 04/03 A3001 RMK A01 T00440032  RH  092%=      5-min Rain = 0
KHA2 240900Z 24001KT 05/03 A3001 RMK A01 T00450032  RH  092%=      5-min Rain = 0
KHA2 240901Z 23001KT 05/03 A3001 RMK A01 T00450033  RH  092%=      5-min Rain = 0
KHA2 240902Z 21002KT 05/03 A3001 RMK A01 T00450032  RH  091%=      5-min Rain = 0
KHA2 240903Z 20002KT 05/03 A3001 RMK A01 T00450031  RH  091%=      5-min Rain = 0
KHA2 240904Z 19003KT 04/03 A3001 RMK A01 T00430028  RH  090%=      5-min Rain = 0
KHA2 240905Z 19003KT 04/02 A3001 RMK A01 T00390021  RH  088%=      5-min Rain = 0
KHA2 240906Z 19003KT 04/02 A3001 RMK A01 T00350018  RH  089%=      5-min Rain = 0
KHA2 240907Z 19003KT 03/02 A3001 RMK A01 T00340019  RH  090%=      5-min Rain = 0
KHA2 240908Z 19004KT 03/02 A3001 RMK A01 T00330020  RH  091%=      5-min Rain = 0
KHA2 240909Z 18004KT 03/02 A3001 RMK A01 T00330021  RH  092%=      5-min Rain = 0
KHA2 240910Z 17005KT 03/02 A3001 RMK A01 T00330022  RH  093%=      5-min Rain = 0
KHA2 240911Z 17005KT 03/02 A3001 RMK A01 T00320022  RH  093%=      5-min Rain = 0
KHA2 240912Z 17006KT 03/02 A3001 RMK A01 T00320022  RH  093%=      5-min Rain = 0
KHA2 240913Z 17006KT 03/02 A3001 RMK A01 T00310022  RH  093%=      5-min Rain = 0
KHA2 240914Z 17006KT 03/02 A3001 RMK A01 T00310022  RH  094%=      5-min Rain = 0
KHA2 240915Z 17005KT 03/02 A3001 RMK A01 T00300021  RH  094%=      5-min Rain = 0
KHA2 240916Z 17004KT 03/02 A3001 RMK A01 T00290020  RH  094%=      5-min Rain = 0
KHA2 240917Z 17004KT 03/02 A3001 RMK A01 T00280019  RH  094%=      5-min Rain = 0
KHA2 240918Z 16003KT 03/02 A3001 RMK A01 T00270019  RH  094%=      5-min Rain = 0
KHA2 240919Z 16003KT 03/02 A3001 RMK A01 T00270019  RH  094%=      5-min Rain = 0
KHA2 240920Z 16002KT 03/02 A3001 RMK A01 T00270019  RH  095%=      5-min Rain = 0
KHA2 240921Z 16002KT 03/02 A3001 RMK A01 T00270020  RH  095%=      5-min Rain = 0
KHA2 240922Z 17001KT 03/02 A3001 RMK A01 T00270020  RH  095%=      5-min Rain = 0
KHA2 240923Z 19001KT 03/02 A3001 RMK A01 T00270021  RH  096%=      5-min Rain = 0
KHA2 240924Z 20002KT 03/02 A3001 RMK A01 T00280022  RH  096%=      5-min Rain = 0
KHA2 240925Z 22002KT 03/02 A3001 RMK A01 T00280022  RH  096%=      5-min Rain = 0
KHA2 240926Z 22001KT 03/02 A3001 RMK A01 T00280023  RH  096%=      5-min Rain = 0
KHA2 240927Z 22001KT 03/02 A30 RMK A01 T00290024  RH  096%=      5-min Rain = 0
KHA2 240928Z 22001KT 03/03 A30 RMK A01 T00300025  RH  097%=      5-min Rain = 0
KHA2 240929Z 25002KT 03/03 A30 RMK A01 T00320027  RH  097%=      5-min Rain = 0
KHA2 240930Z 25002KT 03/03 A30 RMK A01 T00330028  RH  097%=      5-min Rain = 0
KHA2 240931Z 24003KT 03/03 A30 RMK A01 T00340028  RH  096%=      5-min Rain = 0
KHA2 240932Z 25003KT 03/03 A3001 RMK A01 T00340028  RH  096%=      5-min Rain = 0
KHA2 240933Z 24003KT 04/03 A3001 RMK A01 T00350029  RH  096%=      5-min Rain = 0
KHA2 240934Z 24004KT 04/03 A3001 RMK A01 T00350029  RH  096%=      5-min Rain = 0
KHA2 240935Z 24004KT 04/03 A3001 RMK A01 T00350029  RH  096%=      5-min Rain = 0
KHA2 240936Z 23004KT 04/03 A3001 RMK A01 T00350029  RH  096%=      5-min Rain = 0
KHA2 240937Z 23004KT 04/03 A3001 RMK A01 T00350029  RH  095%=      5-min Rain = 0
KHA2 240938Z 23004KT 03/03 A3001 RMK A01 T00340027  RH  095%=      5-min Rain = 0
KHA2 240939Z 23004KT 03/03 A30 RMK A01 T00340026  RH  095%=      5-min Rain = 0
KHA2 240940Z 23004KT 03/03 A30 RMK A01 T00330026  RH  095%=      5-min Rain = 0
KHA2 240941Z 24004KT 03/03 A30 RMK A01 T00330026  RH  095%=      5-min Rain = 0
KHA2 240942Z 24004KT 03/03 A30 RMK A01 T00330026  RH  095%=      5-min Rain = 0
KHA2 240943Z 24003KT 03/03 A30 RMK A01 T00330026  RH  095%=      5-min Rain = 0
KHA2 240944Z 24003KT 03/03 A30 RMK A01 T00330027  RH  096%=      5-min Rain = 0
KHA2 240945Z 25003KT 03/03 A30 RMK A01 T00340027  RH  096%=      5-min Rain = 0
KHA2 240946Z 26003KT 03/03 A30 RMK A01 T00340028  RH  096%=      5-min Rain = 0
KHA2 240947Z 26003KT 04/03 A30 RMK A01 T00350029  RH  096%=      5-min Rain = 0
KHA2 240948Z 25003KT 04/03 A30 RMK A01 T00360030  RH  096%=      5-min Rain = 0
KHA2 240949Z 25003KT 04/03 A30 RMK A01 T00360030  RH  096%=      5-min Rain = 0
KHA2 240950Z 25003KT 04/03 A30 RMK A01 T00370030  RH  096%=      5-min Rain = 0
KHA2 240951Z 26003KT 04/03 A30 RMK A01 T00370030  RH  095%=      5-min Rain = 0
KHA2 240952Z 26003KT 04/03 A30 RMK A01 T00360029  RH  095%=      5-min Rain = 0
KHA2 240953Z 27003KT 04/03 A30 RMK A01 T00360029  RH  095%=      5-min Rain = 0
KHA2 240954Z 27003KT 04/03 A30 RMK A01 T00360029  RH  095%=      5-min Rain = 0
KHA2 240955Z 27003KT 04/03 A30 RMK A01 T00360029  RH  095%=      5-min Rain = 0
KHA2 240956Z 27003KT 04/03 A30 RMK A01 T00360029  RH  095%=      5-min Rain = 0
KHA2 240957Z 28003KT 04/03 A30 RMK A01 T00360029  RH  095%=      5-min Rain = 0
KHA2 240958Z 28003KT 04/03 A30 RMK A01 T00360030  RH  095%=      5-min Rain = 0
KHA2 240959Z 29003KT 04/03 A30 RMK A01 T00360029  RH  095%=      5-min Rain = 0
KHA2 241000Z 30003KT 04/03 A30 RMK A01 T00370030  RH  095%=      5-min Rain = 0
KHA2 241001Z 30003KT 04/03 A30 RMK A01 T00370030  RH  095%=      5-min Rain = 0
KHA2 241002Z 31002KT 04/03 A30 RMK A01 T00370030  RH  095%=      5-min Rain = 0
KHA2 241003Z 31002KT 04/03 A30 RMK A01 T00370030  RH  095%=      5-min Rain = 0
KHA2 241004Z 31002KT 04/03 A30 RMK A01 T00370030  RH  095%=      5-min Rain = 0
KHA2 241005Z 32001KT 04/03 A30 RMK A01 T00370030  RH  095%=      5-min Rain = 0
KHA2 241006Z 32000KT 04/03 A30 RMK A01 T00380030  RH  095%=      5-min Rain = 0
KHA2 241007Z 00000KT 04/03 A30 RMK A01 T00370029  RH  094%=      5-min Rain = 0
KHA2 241008Z 00000KT 04/03 A30 RMK A01 T00370029  RH  094%=      5-min Rain = 0
KHA2 241009Z 00000KT 04/03 A30 RMK A01 T00370029  RH  095%=      5-min Rain = 0
KHA2 241010Z 00000KT 04/03 A3001 RMK A01 T00370029  RH  095%=      5-min Rain = 0
KHA2 241011Z 00000KT 04/03 A3001 RMK A01 T00370029  RH  095%=      5-min Rain = 0
KHA2 241012Z 32000KT 03/02 A3001 RMK A01 T00330022  RH  093%=      5-min Rain = 0
KHA2 241013Z 32000KT 03/02 A3001 RMK A01 T00290018  RH  092%=      5-min Rain = 0
KHA2 241014Z 00000KT 03/02 A3001 RMK A01 T00280018  RH  093%=      5-min Rain = 0
KHA2 241015Z 00000KT 03/02 A3001 RMK A01 T00280018  RH  093%=      5-min Rain = 0
KHA2 241016Z 00000KT 03/02 A3001 RMK A01 T00270017  RH  094%=      5-min Rain = 0
KHA2 241017Z 00000KT 03/02 A3001 RMK A01 T00260017  RH  094%=      5-min Rain = 0
KHA2 241018Z 00000KT 03/02 A3001 RMK A01 T00260017  RH  094%=      5-min Rain = 0
KHA2 241019Z 00000KT 03/02 A3001 RMK A01 T00260019  RH  095%=      5-min Rain = 0
KHA2 241020Z 00000KT 03/02 A3001 RMK A01 T00270020  RH  095%=      5-min Rain = 0
KHA2 241021Z 00000KT 03/02 A3002 RMK A01 T00280022  RH  096%=      5-min Rain = 0
KHA2 241022Z 00000KT 03/02 A3002 RMK A01 T00290023  RH  096%=      5-min Rain = 0
KHA2 241023Z 00000KT 03/02 A3002 RMK A01 T00300024  RH  096%=      5-min Rain = 0
KHA2 241024Z 00000KT 03/03 A3002 RMK A01 T00310025  RH  096%=      5-min Rain = 0
KHA2 241025Z 00000KT 03/03 A3002 RMK A01 T00310025  RH  096%=      5-min Rain = 0
KHA2 241026Z 00000KT 03/02 A3002 RMK A01 T00300024  RH  096%=      5-min Rain = 0
KHA2 241027Z 21000KT 03/02 A3002 RMK A01 T00280020  RH  095%=      5-min Rain = 0
KHA2 241028Z 21002KT 03/02 A3002 RMK A01 T00250016  RH  094%=      5-min Rain = 0
KHA2 241029Z 21002KT 02/01 A3002 RMK A01 T00230014  RH  094%=      5-min Rain = 0
KHA2 241030Z 22003KT 02/01 A3002 RMK A01 T00220014  RH  094%=      5-min Rain = 0
KHA2 241031Z 21003KT 02/01 A3002 RMK A01 T00220014  RH  095%=      5-min Rain = 0
KHA2 241032Z 20003KT 02/01 A3002 RMK A01 T00210014  RH  095%=      5-min Rain = 0
KHA2 241033Z 19004KT 02/01 A3002 RMK A01 T00210014  RH  095%=      5-min Rain = 0
KHA2 241034Z 18005KT 02/01 A3002 RMK A01 T00210014  RH  096%=      5-min Rain = 0
KHA2 241035Z 18007KT 02/01 A3003 RMK A01 T00200014  RH  096%=      5-min Rain = 0
KHA2 241036Z 17009KT 02/01 A3003 RMK A01 T00170010  RH  095%=      5-min Rain = 0
KHA2 241037Z 17009KT 02/01 A3003 RMK A01 T00160009  RH  095%=      5-min Rain = 0
KHA2 241038Z 18009KT 02/01 A3003 RMK A01 T00170011  RH  096%=      5-min Rain = 0
KHA2 241039Z 18008KT 02/01 A3003 RMK A01 T00180013  RH  097%=      5-min Rain = 0
KHA2 241040Z 18007KT 02/02 A3003 RMK A01 T00200016  RH  097%=      5-min Rain = 0
KHA2 241041Z 19007KT 02/02 A3002 RMK A01 T00210017  RH  097%=      5-min Rain = 0
KHA2 241042Z 18006KT 02/02 A3002 RMK A01 T00220018  RH  097%=      5-min Rain = 0
KHA2 241043Z 19006KT 02/02 A3002 RMK A01 T00220019  RH  097%=      5-min Rain = 0
KHA2 241044Z 19006KT 02/02 A3002 RMK A01 T00230019  RH  097%=      5-min Rain = 0
KHA2 241045Z 20006KT 02/02 A3002 RMK A01 T00240020  RH  098%=      5-min Rain = 0
KHA2 241046Z 20006KT 02/02 A3002 RMK A01 T00240021  RH  098%=      5-min Rain = 0
KHA2 241047Z 20006KT 03/02 A3002 RMK A01 T00250021  RH  098%=      5-min Rain = 0
KHA2 241048Z 20006KT 03/02 A3002 RMK A01 T00250022  RH  098%=      5-min Rain = 0
KHA2 241049Z 20006KT 03/02 A3001 RMK A01 T00260022  RH  098%=      5-min Rain = 0
KHA2 241050Z 21006KT 03/02 A3001 RMK A01 T00270023  RH  098%=      5-min Rain = 0
KHA2 241051Z 21006KT 03/03 A3001 RMK A01 T00280025  RH  098%=      5-min Rain = 0
KHA2 241052Z 22005KT 03/03 A3001 RMK A01 T00290026  RH  098%=      5-min Rain = 0
KHA2 241053Z 22005KT 03/03 A3001 RMK A01 T00300027  RH  098%=      5-min Rain = 0
KHA2 241054Z 23005KT 03/03 A3001 RMK A01 T00310027  RH  097%=      5-min Rain = 0
KHA2 241055Z 24006KT 03/03 A3001 RMK A01 T00310026  RH  097%=      5-min Rain = 0
KHA2 241056Z 24006KT 03/03 A3001 RMK A01 T00310026  RH  097%=      5-min Rain = 0
KHA2 241057Z 24006KT 03/03 A3001 RMK A01 T00310026  RH  097%=      5-min Rain = 0
KHA2 241058Z 25006KT 03/03 A3001 RMK A01 T00310025  RH  097%=      5-min Rain = 0
KHA2 241059Z 25006KT 03/03 A3001 RMK A01 T00310026  RH  096%=      5-min Rain = 0
KHA2 241100Z 25006KT 03/03 A3001 RMK A01 T00310026  RH  096%=      5-min Rain = 0
KHA2 241101Z 25007KT 03/03 A3001 RMK A01 T00320026  RH  096%=      5-min Rain = 0
KHA2 241102Z 25007KT 03/03 A3001 RMK A01 T00320026  RH  096%=      5-min Rain = 0
KHA2 241103Z 25007KT 03/03 A3001 RMK A01 T00320026  RH  096%=      5-min Rain = 0
KHA2 241104Z 25006KT 03/03 A3001 RMK A01 T00320026  RH  096%=      5-min Rain = 0
KHA2 241105Z 26006KT 03/03 A3001 RMK A01 T00320026  RH  096%=      5-min Rain = 0
KHA2 241106Z 26006KT 03/03 A30 RMK A01 T00320026  RH  096%=      5-min Rain = 0
KHA2 241107Z 27006KT 03/03 A30 RMK A01 T00320026  RH  096%=      5-min Rain = 0
KHA2 241108Z 27006KT 03/03 A30 RMK A01 T00320026  RH  096%=      5-min Rain = 0
KHA2 241109Z 27006KT 03/03 A30 RMK A01 T00330026  RH  096%=      5-min Rain = 0
KHA2 241110Z 27005KT 03/03 A30 RMK A01 T00330027  RH  096%=      5-min Rain = 0
KHA2 241111Z 27005KT 03/03 A30 RMK A01 T00340027  RH  096%=      5-min Rain = 0
KHA2 241112Z 27005KT 03/03 A30 RMK A01 T00340028  RH  096%=      5-min Rain = 0
KHA2 241113Z 26005KT 03/03 A30 RMK A01 T00340028  RH  096%=      5-min Rain = 0
KHA2 241114Z 27005KT 03/03 A30 RMK A01 T00340028  RH  096%=      5-min Rain = 0
KHA2 241115Z 26006KT 04/03 A30 RMK A01 T00350029  RH  096%=      5-min Rain = 0
KHA2 241116Z 27006KT 04/03 A30 RMK A01 T00360030  RH  096%=      5-min Rain = 0
KHA2 241117Z 26006KT 04/03 A30 RMK A01 T00380032  RH  096%=      5-min Rain = 0
KHA2 241118Z 26007KT 04/03 A30 RMK A01 T00380032  RH  096%=      5-min Rain = 0
KHA2 241119Z 26006KT 04/03 A3001 RMK A01 T00390032  RH  095%=      5-min Rain = 0
KHA2 241120Z 26006KT 04/03 A3001 RMK A01 T00390032  RH  095%=      5-min Rain = 0
KHA2 241121Z 26006KT 04/03 A3001 RMK A01 T00400032  RH  094%=      5-min Rain = 0
KHA2 241122Z 26006KT 04/03 A3001 RMK A01 T00400031  RH  094%=      5-min Rain = 0
KHA2 241123Z 26006KT 04/03 A3001 RMK A01 T00390030  RH  094%=      5-min Rain = 0
KHA2 241124Z 27007KT 04/03 A3001 RMK A01 T00390029  RH  093%=      5-min Rain = 0
KHA2 241125Z 27007KT 04/03 A3001 RMK A01 T00380028  RH  093%=      5-min Rain = 0
KHA2 241126Z 27008KT 04/03 A30 RMK A01 T00380028  RH  093%=      5-min Rain = 0
KHA2 241127Z 27008KT 04/03 A30 RMK A01 T00380028  RH  093%=      5-min Rain = 0
KHA2 241128Z 27008KT 04/03 A30 RMK A01 T00370028  RH  094%=      5-min Rain = 0
KHA2 241129Z 27009KT 04/03 A30 RMK A01 T00380029  RH  094%=      5-min Rain = 0
KHA2 241130Z 27008KT 04/03 A30 RMK A01 T00380029  RH  094%=      5-min Rain = 0
KHA2 241131Z 27008KT 04/03 A30 RMK A01 T00390030  RH  094%=      5-min Rain = 0
KHA2 241132Z 28008KT 04/03 A30 RMK A01 T00390030  RH  093%=      5-min Rain = 0
KHA2 241133Z 28007KT 04/03 A30 RMK A01 T00400030  RH  093%=      5-min Rain = 0
KHA2 241134Z 28007KT 04/03 A30 RMK A01 T00400030  RH  093%=      5-min Rain = 0
KHA2 241135Z 28007KT 04/03 A30 RMK A01 T00410031  RH  093%=      5-min Rain = 0
KHA2 241136Z 28007KT 04/03 A30 RMK A01 T00410030  RH  093%=      5-min Rain = 0
KHA2 241137Z 28006KT 04/03 A30 RMK A01 T00420030  RH  092%=      5-min Rain = 0
KHA2 241138Z 29006KT 04/03 A30 RMK A01 T00420030  RH  092%=      5-min Rain = 0
KHA2 241139Z 28005KT 04/03 A30 RMK A01 T00420030  RH  092%=      5-min Rain = 0
KHA2 241140Z 28005KT 04/03 A30 RMK A01 T00420030  RH  092%=      5-min Rain = 0
KHA2 241141Z 28004KT 04/03 A30 RMK A01 T00420030  RH  092%=      5-min Rain = 0
KHA2 241142Z 28005KT 04/03 A30 RMK A01 T00430030  RH  091%=      5-min Rain = 0
KHA2 241143Z 28004KT 04/03 A30 RMK A01 T00430029  RH  091%=      5-min Rain = 0
KHA2 241144Z 28004KT 04/03 A30 RMK A01 T00430029  RH  091%=      5-min Rain = 0
KHA2 241145Z 28004KT 04/03 A2999 RMK A01 T00430029  RH  091%=      5-min Rain = 0
KHA2 241146Z 28004KT 04/03 A2999 RMK A01 T00420029  RH  091%=      5-min Rain = 0
KHA2 241147Z 27004KT 04/03 A2999 RMK A01 T00420029  RH  091%=      5-min Rain = 0
KHA2 241148Z 27004KT 04/03 A2999 RMK A01 T00420029  RH  091%=      5-min Rain = 0
KHA2 241149Z 27004KT 04/03 A2999 RMK A01 T00410028  RH  091%=      5-min Rain = 0
KHA2 241150Z 25003KT 04/03 A2999 RMK A01 T00410028  RH  091%=      5-min Rain = 0
KHA2 241151Z 24003KT 04/03 A2999 RMK A01 T00410028  RH  091%=      5-min Rain = 0
KHA2 241152Z 24003KT 04/03 A2999 RMK A01 T00400027  RH  091%=      5-min Rain = 0
KHA2 241153Z 22004KT 04/02 A2999 RMK A01 T00380024  RH  091%=      5-min Rain = 0
KHA2 241154Z 21006KT 04/02 A2999 RMK A01 T00350021  RH  091%=      5-min Rain = 0
KHA2 241155Z 21007KT 03/02 A30 RMK A01 T00320019  RH  091%=      5-min Rain = 0
KHA2 241156Z 21008KT 03/02 A30 RMK A01 T00300018  RH  092%=      5-min Rain = 0
KHA2 241157Z 20007KT 03/02 A30 RMK A01 T00290019  RH  093%=      5-min Rain = 0
KHA2 241158Z 21008KT 03/02 A30 RMK A01 T00280020  RH  094%=      5-min Rain = 0
KHA2 241159Z 23007KT 03/02 A30 RMK A01 T00280021  RH  095%=      5-min Rain = 0
KHA2 241200Z 24006KT 03/02 A30 RMK A01 T00290021  RH  095%=      5-min Rain = 0
KHA2 241201Z 25006KT 03/02 A30 RMK A01 T00280021  RH  095%=      5-min Rain = 0
KHA2 241202Z 25006KT 03/02 A30 RMK A01 T00290022  RH  095%=      5-min Rain = 0
KHA2 241203Z 25005KT 03/02 A30 RMK A01 T00290022  RH  095%=      5-min Rain = 0
KHA2 241204Z 25005KT 03/02 A30 RMK A01 T00290023  RH  095%=      5-min Rain = 0
KHA2 241205Z 25005KT 03/02 A30 RMK A01 T00290023  RH  095%=      5-min Rain = 0
KHA2 241206Z 23004KT 03/02 A30 RMK A01 T00300023  RH  095%=      5-min Rain = 0
KHA2 241207Z 22004KT 03/02 A30 RMK A01 T00300023  RH  095%=      5-min Rain = 0
KHA2 241208Z 22005KT 03/02 A30 RMK A01 T00290022  RH  095%=      5-min Rain = 0
KHA2 241209Z 21005KT 03/02 A30 RMK A01 T00290021  RH  095%=      5-min Rain = 0
KHA2 241210Z 20006KT 03/02 A3001 RMK A01 T00280020  RH  095%=      5-min Rain = 0
KHA2 241211Z 21005KT 03/02 A3001 RMK A01 T00270019  RH  095%=      5-min Rain = 0
KHA2 241212Z 21005KT 03/02 A3001 RMK A01 T00260019  RH  095%=      5-min Rain = 0
KHA2 241213Z 23005KT 03/02 A3001 RMK A01 T00260019  RH  095%=      5-min Rain = 0
KHA2 241214Z 24005KT 03/02 A30 RMK A01 T00260019  RH  096%=      5-min Rain = 0
KHA2 241215Z 25006KT 03/02 A30 RMK A01 T00260020  RH  096%=      5-min Rain = 0
KHA2 241216Z 26006KT 03/02 A30 RMK A01 T00260020  RH  096%=      5-min Rain = 0
KHA2 241217Z 27005KT 03/02 A30 RMK A01 T00260020  RH  096%=      5-min Rain = 0
KHA2 241218Z 27005KT 03/02 A30 RMK A01 T00260020  RH  096%=      5-min Rain = 0
KHA2 241219Z 27005KT 03/02 A30 RMK A01 T00260021  RH  096%=      5-min Rain = 0
KHA2 241220Z 27006KT 03/02 A30 RMK A01 T00270021  RH  096%=      5-min Rain = 0
KHA2 241221Z 27006KT 03/02 A30 RMK A01 T00270021  RH  096%=      5-min Rain = 0
KHA2 241222Z 26006KT 03/02 A30 RMK A01 T00270022  RH  096%=      5-min Rain = 0
KHA2 241223Z 26006KT 03/02 A3001 RMK A01 T00280022  RH  096%=      5-min Rain = 0
KHA2 241224Z 25007KT 03/02 A3001 RMK A01 T00280022  RH  096%=      5-min Rain = 0
KHA2 241225Z 26006KT 03/02 A3001 RMK A01 T00280022  RH  096%=      5-min Rain = 0
KHA2 241226Z 25007KT 03/02 A3001 RMK A01 T00280022  RH  095%=      5-min Rain = 0
KHA2 241227Z 26007KT 03/02 A3001 RMK A01 T00280021  RH  095%=      5-min Rain = 0
KHA2 241228Z 26007KT 03/02 A3001 RMK A01 T00280021  RH  095%=      5-min Rain = 0
KHA2 241229Z 27007KT 03/02 A3001 RMK A01 T00280021  RH  095%=      5-min Rain = 0
KHA2 241230Z 26006KT 03/02 A3001 RMK A01 T00290022  RH  095%=      5-min Rain = 0
KHA2 241231Z 26007KT 03/02 A3001 RMK A01 T00290022  RH  095%=      5-min Rain = 0
KHA2 241232Z 26007KT 03/02 A3001 RMK A01 T00300023  RH  095%=      5-min Rain = 0
KHA2 241233Z 26007KT 03/02 A3001 RMK A01 T00310023  RH  095%=      5-min Rain = 0
KHA2 241234Z 26008KT 03/02 A3001 RMK A01 T00310023  RH  094%=      5-min Rain = 0
KHA2 241235Z 25008KT 03/02 A3001 RMK A01 T00310023  RH  094%=      5-min Rain = 0
KHA2 241236Z 25007KT 03/02 A3001 RMK A01 T00310022  RH  094%=      5-min Rain = 0
KHA2 241237Z 25007KT 03/02 A3002 RMK A01 T00310022  RH  094%=      5-min Rain = 0
KHA2 241238Z 25007KT 03/02 A3002 RMK A01 T00310022  RH  094%=      5-min Rain = 0
KHA2 241239Z 25007KT 03/02 A3002 RMK A01 T00300021  RH  094%=      5-min Rain = 0
KHA2 241240Z 25007KT 03/02 A3002 RMK A01 T00300021  RH  094%=      5-min Rain = 0
KHA2 241241Z 25007KT 03/02 A3002 RMK A01 T00290020  RH  094%=      5-min Rain = 0
KHA2 241242Z 25007KT 03/02 A3002 RMK A01 T00290021  RH  094%=      5-min Rain = 0
KHA2 241243Z 25007KT 03/02 A3002 RMK A01 T00290021  RH  094%=      5-min Rain = 0
KHA2 241244Z 25007KT 03/02 A3002 RMK A01 T00290022  RH  095%=      5-min Rain = 0
KHA2 241245Z 25006KT 03/02 A3002 RMK A01 T00300022  RH  095%=      5-min Rain = 0
KHA2 241246Z 25006KT 03/02 A3002 RMK A01 T00300022  RH  094%=      5-min Rain = 0
KHA2 241247Z 24006KT 03/02 A3002 RMK A01 T00310022  RH  094%=      5-min Rain = 0
KHA2 241248Z 24007KT 03/02 A3002 RMK A01 T00310022  RH  094%=      5-min Rain = 0
KHA2 241249Z 24007KT 03/02 A3002 RMK A01 T00310022  RH  094%=      5-min Rain = 0
KHA2 241250Z 25007KT 03/02 A3002 RMK A01 T00310023  RH  094%=      5-min Rain = 0
KHA2 241251Z 25006KT 03/02 A3002 RMK A01 T00320024  RH  094%=      5-min Rain = 0
KHA2 241252Z 25007KT 03/02 A3002 RMK A01 T00320024  RH  094%=      5-min Rain = 0
KHA2 241253Z 24007KT 03/03 A3002 RMK A01 T00330025  RH  094%=      5-min Rain = 0
KHA2 241254Z 24007KT 03/03 A3003 RMK A01 T00340026  RH  095%=      5-min Rain = 0
KHA2 241255Z 23007KT 04/03 A3003 RMK A01 T00360027  RH  094%=      5-min Rain = 0
KHA2 241256Z 23007KT 04/03 A3003 RMK A01 T00360028  RH  094%=      5-min Rain = 0
KHA2 241257Z 23007KT 04/03 A3003 RMK A01 T00370028  RH  094%=      5-min Rain = 0
KHA2 241258Z 23007KT 04/03 A3003 RMK A01 T00380029  RH  094%=      5-min Rain = 0
KHA2 241259Z 24008KT 04/03 A3003 RMK A01 T00390030  RH  094%=      5-min Rain = 0
KHA2 241300Z 24008KT 04/03 A3003 RMK A01 T00390030  RH  094%=      5-min Rain = 0
KHA2 241301Z 24009KT 04/03 A3003 RMK A01 T00400031  RH  094%=      5-min Rain = 0
KHA2 241302Z 24009KT 04/03 A3003 RMK A01 T00400031  RH  093%=      5-min Rain = 0
KHA2 241303Z 25007KT 04/03 A3003 RMK A01 T00410031  RH  093%=      5-min Rain = 0
KHA2 241304Z 25008KT 04/03 A3003 RMK A01 T00420033  RH  094%=      5-min Rain = 0
KHA2 241305Z 25007KT 04/03 A3003 RMK A01 T00430034  RH  094%=      5-min Rain = 0
KHA2 241306Z 25007KT 04/04 A3003 RMK A01 T00440035  RH  094%=      5-min Rain = 0
KHA2 241307Z 25007KT 04/04 A3003 RMK A01 T00440035  RH  094%=      5-min Rain = 0
KHA2 241308Z 25008KT 05/04 A3003 RMK A01 T00450036  RH  093%=      5-min Rain = 0
KHA2 241309Z 25007KT 05/04 A3003 RMK A01 T00450035  RH  093%=      5-min Rain = 0
KHA2 241310Z 25008KT 05/04 A3003 RMK A01 T00460035  RH  093%=      5-min Rain = 0
KHA2 241311Z 25008KT 05/04 A3003 RMK A01 T00460035  RH  092%=      5-min Rain = 0
KHA2 241312Z 25008KT 05/04 A3003 RMK A01 T00470035  RH  092%=      5-min Rain = 0
KHA2 241313Z 25008KT 05/04 A3003 RMK A01 T00470035  RH  092%=      5-min Rain = 0
KHA2 241314Z 26008KT 05/04 A3003 RMK A01 T00480036  RH  092%=      5-min Rain = 0
KHA2 241315Z 26008KT 05/04 A3002 RMK A01 T00480036  RH  092%=      5-min Rain = 0
KHA2 241316Z 26007KT 05/04 A3002 RMK A01 T00490037  RH  092%=      5-min Rain = 0
KHA2 241317Z 26008KT 05/04 A3002 RMK A01 T00500038  RH  092%=      5-min Rain = 0
KHA2 241318Z 27007KT 05/04 A3002 RMK A01 T00510038  RH  091%=      5-min Rain = 0
KHA2 241319Z 27007KT 05/04 A3002 RMK A01 T00510039  RH  092%=      5-min Rain = 0
KHA2 241320Z 27007KT 05/04 A3002 RMK A01 T00520038  RH  091%=      5-min Rain = 0
KHA2 241321Z 27007KT 05/04 A3002 RMK A01 T00520039  RH  091%=      5-min Rain = 0
KHA2 241322Z 28007KT 05/04 A3002 RMK A01 T00530039  RH  091%=      5-min Rain = 0
KHA2 241323Z 28007KT 05/04 A3002 RMK A01 T00540040  RH  091%=      5-min Rain = 0
KHA2 241324Z 27007KT 06/04 A3002 RMK A01 T00550040  RH  090%=      5-min Rain = 0
KHA2 241325Z 27007KT 06/04 A3002 RMK A01 T00560041  RH  090%=      5-min Rain = 0
KHA2 241326Z 27007KT 06/04 A3002 RMK A01 T00560041  RH  090%=      5-min Rain = 0
KHA2 241327Z 28007KT 06/04 A3002 RMK A01 T00570042  RH  090%=      5-min Rain = 0
KHA2 241328Z 28007KT 06/04 A3002 RMK A01 T00590043  RH  090%=      5-min Rain = 0
KHA2 241329Z 28007KT 06/04 A3002 RMK A01 T00600043  RH  089%=      5-min Rain = 0
KHA2 241330Z 28008KT 06/04 A3002 RMK A01 T00610042  RH  088%=      5-min Rain = 0
KHA2 241331Z 28007KT 06/04 A3002 RMK A01 T00620042  RH  087%=      5-min Rain = 0
KHA2 241332Z 28007KT 06/04 A3002 RMK A01 T00630044  RH  087%=      5-min Rain = 0
KHA2 241333Z 28008KT 07/04 A3002 RMK A01 T00650044  RH  087%=      5-min Rain = 0
KHA2 241334Z 28008KT 07/04 A3002 RMK A01 T00660044  RH  086%=      5-min Rain = 0
KHA2 241335Z 28008KT 07/05 A3002 RMK A01 T00660045  RH  086%=      5-min Rain = 0
KHA2 241336Z 28007KT 07/05 A3002 RMK A01 T00670046  RH  086%=      5-min Rain = 0
KHA2 241337Z 28007KT 07/05 A3002 RMK A01 T00680046  RH  086%=      5-min Rain = 0
KHA2 241338Z 28007KT 07/05 A3002 RMK A01 T00690045  RH  085%=      5-min Rain = 0
KHA2 241339Z 28008KT 07/05 A3002 RMK A01 T00700048  RH  086%=      5-min Rain = 0
KHA2 241340Z 28007KT 07/05 A3002 RMK A01 T00710047  RH  084%=      5-min Rain = 0
KHA2 241341Z 28007KT 07/05 A3002 RMK A01 T00720046  RH  084%=      5-min Rain = 0
KHA2 241342Z 29006KT 07/05 A3002 RMK A01 T00720048  RH  084%=      5-min Rain = 0
KHA2 241343Z 28007KT 07/05 A3001 RMK A01 T00730049  RH  085%=      5-min Rain = 0
KHA2 241344Z 28008KT 07/05 A3001 RMK A01 T00740048  RH  084%=      5-min Rain = 0
KHA2 241345Z 29007KT 08/05 A3001 RMK A01 T00750048  RH  083%=      5-min Rain = 0
KHA2 241346Z 29007KT 08/05 A3001 RMK A01 T00760048  RH  083%=      5-min Rain = 0
KHA2 241347Z 29006KT 08/05 A3001 RMK A01 T00770049  RH  082%=      5-min Rain = 0
KHA2 241348Z 30007KT 08/05 A3001 RMK A01 T00780050  RH  083%=      5-min Rain = 0
KHA2 241349Z 29007KT 08/05 A3002 RMK A01 T00790049  RH  082%=      5-min Rain = 0
KHA2 241350Z 29006KT 08/05 A3002 RMK A01 T00790050  RH  082%=      5-min Rain = 0
KHA2 241351Z 29005KT 08/05 A3002 RMK A01 T00790050  RH  082%=      5-min Rain = 0
KHA2 241352Z 28005KT 08/05 A3002 RMK A01 T00810052  RH  082%=      5-min Rain = 0
KHA2 241353Z 28005KT 08/05 A3002 RMK A01 T00820051  RH  081%=      5-min Rain = 0
KHA2 241354Z 28006KT 08/05 A3002 RMK A01 T00820050  RH  080%=      5-min Rain = 0
KHA2 241355Z 29005KT 08/05 A3002 RMK A01 T00820048  RH  079%=      5-min Rain = 0
KHA2 241356Z 29006KT 08/05 A3002 RMK A01 T00810050  RH  081%=      5-min Rain = 0
KHA2 241357Z 29005KT 08/05 A3002 RMK A01 T00820052  RH  081%=      5-min Rain = 0
KHA2 241358Z 29006KT 08/05 A3002 RMK A01 T00830052  RH  080%=      5-min Rain = 0
KHA2 241359Z 29006KT 08/05 A3002 RMK A01 T00840051  RH  080%=      5-min Rain = 0
KHA2 241400Z 29007KT 09/05 A3002 RMK A01 T00850053  RH  081%=      5-min Rain = 0
KHA2 241401Z 29007KT 09/05 A3002 RMK A01 T00850053  RH  080%=      5-min Rain = 0
KHA2 241402Z 29006KT 09/05 A3002 RMK A01 T00850053  RH  080%=      5-min Rain = 0
KHA2 241403Z 29004KT 09/06 A3002 RMK A01 T00860056  RH  081%=      5-min Rain = 0
KHA2 241404Z 29006KT 09/06 A3002 RMK A01 T00880058  RH  081%=      5-min Rain = 0
KHA2 241405Z 29006KT 09/06 A3002 RMK A01 T00890056  RH  080%=      5-min Rain = 0
KHA2 241406Z 29006KT 09/06 A3002 RMK A01 T00890056  RH  080%=      5-min Rain = 0
KHA2 241407Z 29006KT 09/06 A3001 RMK A01 T00900056  RH  080%=      5-min Rain = 0
KHA2 241408Z 29007KT 09/06 A3001 RMK A01 T00900057  RH  079%=      5-min Rain = 0
KHA2 241409Z 29006KT 09/05 A3001 RMK A01 T00910054  RH  078%=      5-min Rain = 0
KHA2 241410Z 29006KT 09/06 A3001 RMK A01 T00910055  RH  078%=      5-min Rain = 0
KHA2 241411Z 29006KT 09/06 A3001 RMK A01 T00920057  RH  079%=      5-min Rain = 0
KHA2 241412Z 29006KT 09/06 A3001 RMK A01 T00920055  RH  078%=      5-min Rain = 0
KHA2 241413Z 29007KT 09/06 A3001 RMK A01 T00930055  RH  077%=      5-min Rain = 0
KHA2 241414Z 29007KT 09/06 A3001 RMK A01 T00930056  RH  077%=      5-min Rain = 0
KHA2 241415Z 29006KT 09/06 A3001 RMK A01 T00940056  RH  077%=      5-min Rain = 0
KHA2 241416Z 28007KT 10/06 A3001 RMK A01 T00950057  RH  077%=      5-min Rain = 0
KHA2 241417Z 28006KT 10/06 A3001 RMK A01 T00950055  RH  076%=      5-min Rain = 0
KHA2 241418Z 28005KT 10/06 A3002 RMK A01 T00960058  RH  077%=      5-min Rain = 0
KHA2 241419Z 29006KT 10/06 A3001 RMK A01 T00970058  RH  077%=      5-min Rain = 0
KHA2 241420Z 29005KT 10/06 A3002 RMK A01 T00990061  RH  077%=      5-min Rain = 0
KHA2 241433Z 28006KT 11/06 A3001 RMK A01 T01060062  RH  074%=      5-min Rain = 0
KHA2 241434Z 28007KT 11/06 A3001 RMK A01 T01060060  RH  073%=      5-min Rain = 0
KHA2 241435Z 28008KT 11/06 A3001 RMK A01 T01060059  RH  073%=      5-min Rain = 0
KHA2 241436Z 28007KT 11/06 A3001 RMK A01 T01060060  RH  073%=      5-min Rain = 0
KHA2 241437Z 28007KT 11/06 A3001 RMK A01 T01070060  RH  073%=      5-min Rain = 0
KHA2 241438Z 28007KT 11/06 A3001 RMK A01 T01070062  RH  074%=      5-min Rain = 0
KHA2 241439Z 28007KT 11/06 A3001 RMK A01 T01080063  RH  074%=      5-min Rain = 0
KHA2 241440Z 30007KT 11/06 A3001 RMK A01 T01080061  RH  072%=      5-min Rain = 0
KHA2 241441Z 28005KT 11/07 A3001 RMK A01 T01090065  RH  074%=      5-min Rain = 0
KHA2 241442Z 29008KT 11/06 A3001 RMK A01 T01110062  RH  072%=      5-min Rain = 0
KHA2 241443Z 28007KT 11/06 A3001 RMK A01 T01100061  RH  072%=      5-min Rain = 0
KHA2 241444Z 28006KT 11/06 A3001 RMK A01 T01100061  RH  072%=      5-min Rain = 0
KHA2 241445Z 28006KT 11/06 A3001 RMK A01 T01100063  RH  073%=      5-min Rain = 0
KHA2 241446Z 28007KT 11/07 A3001 RMK A01 T01110066  RH  074%=      5-min Rain = 0
KHA2 241447Z 28007KT 11/07 A3001 RMK A01 T01120065  RH  073%=      5-min Rain = 0
KHA2 241448Z 28006KT 11/06 A3001 RMK A01 T01130061  RH  071%=      5-min Rain = 0
KHA2 241449Z 27006KT 11/06 A3001 RMK A01 T01130062  RH  071%=      5-min Rain = 0
KHA2 241450Z 28005KT 11/06 A3001 RMK A01 T01120060  RH  070%=      5-min Rain = 0
KHA2 241451Z 29005KT 11/07 A3001 RMK A01 T01130065  RH  072%=      5-min Rain = 0
KHA2 241452Z 30007KT 12/07 A3001 RMK A01 T01150067  RH  072%=      5-min Rain = 0
KHA2 241453Z 28006KT 12/07 A3001 RMK A01 T01160066  RH  071%=      5-min Rain = 0
KHA2 241454Z 30006KT 12/07 A3001 RMK A01 T01160067  RH  072%=      5-min Rain = 0
KHA2 241455Z 29005KT 12/06 A3001 RMK A01 T01170063  RH  070%=      5-min Rain = 0
KHA2 241456Z 28005KT 12/07 A3001 RMK A01 T01170065  RH  071%=      5-min Rain = 0
KHA2 241457Z 29005KT 12/07 A3001 RMK A01 T01170065  RH  070%=      5-min Rain = 0
KHA2 241458Z 27006KT 12/07 A3001 RMK A01 T01170068  RH  072%=      5-min Rain = 0
KHA2 241459Z 26005KT 12/07 A3001 RMK A01 T01180067  RH  071%=      5-min Rain = 0
KHA2 241500Z 26005KT 12/07 A3001 RMK A01 T01180069  RH  072%=      5-min Rain = 0
KHA2 241501Z 27005KT 12/07 A3001 RMK A01 T01190069  RH  071%=      5-min Rain = 0
KHA2 241502Z 28006KT 12/07 A3001 RMK A01 T01200071  RH  072%=      5-min Rain = 0
KHA2 241503Z 28005KT 12/07 A3001 RMK A01 T01220069  RH  070%=      5-min Rain = 0
KHA2 241504Z 29005KT 12/07 A3001 RMK A01 T01210069  RH  071%=      5-min Rain = 0
KHA2 241505Z 29007KT 12/07 A3001 RMK A01 T01220069  RH  070%=      5-min Rain = 0
KHA2 241506Z 29008KT 12/07 A30 RMK A01 T01220069  RH  070%=      5-min Rain = 0
KHA2 241507Z 31008KT 12/07 A30 RMK A01 T01230070  RH  070%=      5-min Rain = 0
KHA2 241508Z 31007KT 12/07 A30 RMK A01 T01230068  RH  069%=      5-min Rain = 0
KHA2 241509Z 31007KT 12/07 A30 RMK A01 T01230067  RH  068%=      5-min Rain = 0
KHA2 241510Z 32009KT 12/07 A30 RMK A01 T01240070  RH  070%=      5-min Rain = 0
KHA2 241511Z 32007KT 13/07 A30 RMK A01 T01260072  RH  070%=      5-min Rain = 0
KHA2 241512Z 31009KT 13/07 A30 RMK A01 T01270070  RH  068%=      5-min Rain = 0
KHA2 241513Z 31006KT 13/07 A30 RMK A01 T01270074  RH  070%=      5-min Rain = 0
KHA2 241514Z 30008KT 13/08 A2999 RMK A01 T01290077  RH  071%=      5-min Rain = 0
KHA2 241515Z 31009KT 13/07 A2999 RMK A01 T01290069  RH  067%=      5-min Rain = 0
KHA2 241516Z 32008KT 13/07 A2999 RMK A01 T01280069  RH  067%=      5-min Rain = 0
KHA2 241517Z 30009KT 13/07 A2999 RMK A01 T01270069  RH  067%=      5-min Rain = 0
KHA2 241518Z 31008KT 13/07 A2999 RMK A01 T01270071  RH  069%=      5-min Rain = 0
KHA2 241519Z 32008KT 13/07 A2999 RMK A01 T01270070  RH  068%=      5-min Rain = 0
KHA2 241520Z 32009KT 13/07 A2999 RMK A01 T01280071  RH  068%=      5-min Rain = 0
KHA2 241521Z 30008KT 13/08 A2999 RMK A01 T01290075  RH  070%=      5-min Rain = 0
KHA2 241522Z 30008KT 13/07 A2999 RMK A01 T01310074  RH  068%=      5-min Rain = 0
KHA2 241523Z 31008KT 13/07 A2999 RMK A01 T01310073  RH  068%=      5-min Rain = 0
KHA2 241524Z 31008KT 13/07 A2999 RMK A01 T01300072  RH  068%=      5-min Rain = 0
KHA2 241525Z 31008KT 13/07 A2999 RMK A01 T01300072  RH  068%=      5-min Rain = 0
KHA2 241526Z 31009KT 13/07 A2999 RMK A01 T01300073  RH  068%=      5-min Rain = 0
KHA2 241527Z 31010KT 13/07 A2999 RMK A01 T01300073  RH  068%=      5-min Rain = 0
KHA2 241528Z 31008KT 13/07 A30 RMK A01 T01310071  RH  067%=      5-min Rain = 0
KHA2 241529Z 32009KT 13/08 A30 RMK A01 T01310078  RH  070%=      5-min Rain = 0
KHA2 241530Z 32009KT 13/08 A30 RMK A01 T01330075  RH  068%=      5-min Rain = 0
KHA2 241531Z 31007KT 13/07 A30 RMK A01 T01320072  RH  067%=      5-min Rain = 0
KHA2 241532Z 32007KT 13/07 A30 RMK A01 T01300070  RH  067%=      5-min Rain = 0
KHA2 241533Z 31009KT 13/07 A30 RMK A01 T01310074  RH  068%=      5-min Rain = 0
KHA2 241534Z 30009KT 13/07 A30 RMK A01 T01310072  RH  067%=      5-min Rain = 0
KHA2 241535Z 31008KT 13/07 A30 RMK A01 T01310073  RH  068%=      5-min Rain = 0
KHA2 241536Z 30008KT 13/08 A30 RMK A01 T01320076  RH  069%=      5-min Rain = 0
KHA2 241537Z 30008KT 13/08 A30 RMK A01 T01330079  RH  070%=      5-min Rain = 0
KHA2 241538Z 32007KT 14/08 A30 RMK A01 T01350076  RH  068%=      5-min Rain = 0
KHA2 241539Z 31009KT 14/08 A30 RMK A01 T01350078  RH  068%=      5-min Rain = 0
KHA2 241540Z 32010KT 14/07 A30 RMK A01 T01350073  RH  066%=      5-min Rain = 0
KHA2 241541Z 32007KT 13/07 A30 RMK A01 T01340070  RH  065%=      5-min Rain = 0
KHA2 241542Z 32009KT 13/07 A30 RMK A01 T01340074  RH  067%=      5-min Rain = 0
KHA2 241543Z 30011KT 14/08 A30 RMK A01 T01350076  RH  067%=      5-min Rain = 0
KHA2 241544Z 30009KT 14/08 A30 RMK A01 T01360075  RH  066%=      5-min Rain = 0
KHA2 241545Z 30009KT 14/07 A30 RMK A01 T01360073  RH  066%=      5-min Rain = 0
KHA2 241546Z 32008KT 13/07 A30 RMK A01 T01340069  RH  065%=      5-min Rain = 0
KHA2 241547Z 32008KT 13/07 A30 RMK A01 T01340072  RH  066%=      5-min Rain = 0
KHA2 241548Z 33007KT 14/08 A30 RMK A01 T01350076  RH  067%=      5-min Rain = 0
KHA2 241549Z 32006KT 14/07 A30 RMK A01 T01370070  RH  064%=      5-min Rain = 0
KHA2 241550Z 33009KT 14/08 A30 RMK A01 T01370075  RH  066%=      5-min Rain = 0
KHA2 241551Z 33006KT 14/07 A30 RMK A01 T01370073  RH  065%=      5-min Rain = 0
KHA2 241552Z 29006KT 14/08 A30 RMK A01 T01390079  RH  067%=      5-min Rain = 0
KHA2 241553Z 29007KT 14/08 A30 RMK A01 T01400076  RH  065%=      5-min Rain = 0
KHA2 241554Z 31008KT 14/08 A30 RMK A01 T01400075  RH  065%=      5-min Rain = 0
KHA2 241555Z 30010KT 14/08 A30 RMK A01 T01420077  RH  065%=      5-min Rain = 0
KHA2 241556Z 31008KT 14/07 A30 RMK A01 T01420074  RH  064%=      5-min Rain = 0
KHA2 241557Z 32006KT 14/07 A30 RMK A01 T01400069  RH  062%=      5-min Rain = 0
KHA2 241558Z 32005KT 14/07 A3001 RMK A01 T01390072  RH  064%=      5-min Rain = 0
KHA2 241559Z 29008KT 14/08 A3001 RMK A01 T01400076  RH  065%=      5-min Rain = 0
KHA2 241600Z 30008KT 14/08 A3001 RMK A01 T01440081  RH  066%=      5-min Rain = 0
KHA2 241601Z 29006KT 14/07 A3001 RMK A01 T01440068  RH  060%=      5-min Rain = 0
KHA2 241602Z 29007KT 14/07 A3001 RMK A01 T01410068  RH  061%=      5-min Rain = 0
KHA2 241603Z 31006KT 14/07 A3001 RMK A01 T01400071  RH  063%=      5-min Rain = 0
KHA2 241604Z 32006KT 14/07 A3001 RMK A01 T01410071  RH  063%=      5-min Rain = 0
KHA2 241605Z 30005KT 14/07 A3001 RMK A01 T01400069  RH  062%=      5-min Rain = 0
KHA2 241606Z 31007KT 14/08 A3001 RMK A01 T01420078  RH  066%=      5-min Rain = 0
KHA2 241607Z 32007KT 14/07 A3001 RMK A01 T01440071  RH  062%=      5-min Rain = 0
KHA2 241608Z 30005KT 14/06 A3001 RMK A01 T01420064  RH  059%=      5-min Rain = 0
KHA2 241609Z 33004KT 14/07 A3001 RMK A01 T01410066  RH  060%=      5-min Rain = 0
KHA2 241610Z 27003KT 14/07 A3001 RMK A01 T01410066  RH  061%=      5-min Rain = 0
KHA2 241611Z 27004KT 14/06 A3001 RMK A01 T01410064  RH  060%=      5-min Rain = 0
KHA2 241612Z 31004KT 14/07 A3001 RMK A01 T01410071  RH  063%=      5-min Rain = 0
KHA2 241613Z 31007KT 14/07 A3001 RMK A01 T01430072  RH  063%=      5-min Rain = 0
KHA2 241614Z 32006KT 14/07 A3001 RMK A01 T01430067  RH  060%=      5-min Rain = 0
KHA2 241615Z 32006KT 14/07 A3001 RMK A01 T01420068  RH  061%=      5-min Rain = 0
KHA2 241616Z 32004KT 14/07 A3001 RMK A01 T01420066  RH  060%=      5-min Rain = 0
KHA2 241617Z 34008KT 14/07 A3001 RMK A01 T01420072  RH  063%=      5-min Rain = 0
KHA2 241618Z 32006KT 14/07 A3001 RMK A01 T01440072  RH  062%=      5-min Rain = 0
KHA2 241619Z 29007KT 15/08 A3001 RMK A01 T01450078  RH  064%=      5-min Rain = 0
KHA2 241620Z 28004KT 15/07 A3001 RMK A01 T01460070  RH  060%=      5-min Rain = 0
KHA2 241621Z 29002KT 14/07 A3001 RMK A01 T01440066  RH  060%=      5-min Rain = 0
KHA2 241622Z 30003KT 14/07 A3001 RMK A01 T01430068  RH  061%=      5-min Rain = 0
KHA2 241623Z 32007KT 14/08 A3001 RMK A01 T01440075  RH  063%=      5-min Rain = 0
KHA2 241624Z 32008KT 15/07 A3001 RMK A01 T01470074  RH  062%=      5-min Rain = 0
KHA2 241625Z 31008KT 15/08 A3002 RMK A01 T01470077  RH  063%=      5-min Rain = 0
KHA2 241626Z 32006KT 15/07 A3002 RMK A01 T01470070  RH  060%=      5-min Rain = 0
KHA2 241627Z 29004KT 15/07 A3002 RMK A01 T01460072  RH  061%=      5-min Rain = 0
KHA2 241628Z 26002KT 15/07 A3002 RMK A01 T01450067  RH  059%=      5-min Rain = 0
KHA2 241629Z 28005KT 15/07 A3002 RMK A01 T01450071  RH  061%=      5-min Rain = 0
KHA2 241630Z 29005KT 15/07 A3002 RMK A01 T01460073  RH  062%=      5-min Rain = 0
KHA2 241631Z 28004KT 15/07 A3002 RMK A01 T01470073  RH  061%=      5-min Rain = 0
KHA2 241632Z 28004KT 15/07 A3002 RMK A01 T01470067  RH  059%=      5-min Rain = 0
KHA2 241633Z 28006KT 15/07 A3001 RMK A01 T01470073  RH  061%=      5-min Rain = 0
KHA2 241634Z 29005KT 15/07 A3002 RMK A01 T01470071  RH  061%=      5-min Rain = 0
KHA2 241635Z 33007KT 15/08 A3002 RMK A01 T01490079  RH  063%=      5-min Rain = 0
KHA2 241636Z 34006KT 15/07 A3002 RMK A01 T01500073  RH  060%=      5-min Rain = 0
KHA2 241637Z 34006KT 15/07 A3002 RMK A01 T01490073  RH  060%=      5-min Rain = 0
KHA2 241638Z 30003KT 15/07 A3002 RMK A01 T01500068  RH  058%=      5-min Rain = 0
KHA2 241639Z 31003KT 15/07 A3002 RMK A01 T01490070  RH  059%=      5-min Rain = 0
KHA2 241640Z 29006KT 15/07 A3002 RMK A01 T01490072  RH  060%=      5-min Rain = 0
KHA2 241641Z 30004KT 15/07 A3002 RMK A01 T01480069  RH  059%=      5-min Rain = 0
KHA2 241642Z 31006KT 15/08 A3002 RMK A01 T01500081  RH  063%=      5-min Rain = 0
KHA2 241643Z 32006KT 15/07 A3002 RMK A01 T01520074  RH  060%=      5-min Rain = 0
KHA2 241644Z 32006KT 15/08 A3002 RMK A01 T01520079  RH  062%=      5-min Rain = 0
KHA2 241645Z 32008KT 15/08 A3002 RMK A01 T01530079  RH  061%=      5-min Rain = 0
KHA2 241646Z 33007KT 15/08 A3002 RMK A01 T01540077  RH  060%=      5-min Rain = 0
KHA2 241647Z 31007KT 15/08 A3002 RMK A01 T01540077  RH  060%=      5-min Rain = 0
KHA2 241648Z 33006KT 15/07 A3002 RMK A01 T01530073  RH  059%=      5-min Rain = 0
KHA2 241649Z 33007KT 15/08 A3001 RMK A01 T01520079  RH  061%=      5-min Rain = 0
KHA2 241650Z 32006KT 15/08 A3001 RMK A01 T01530077  RH  060%=      5-min Rain = 0
KHA2 241651Z 32008KT 15/08 A3001 RMK A01 T01540079  RH  061%=      5-min Rain = 0
KHA2 241652Z 31005KT 15/07 A3001 RMK A01 T01540074  RH  059%=      5-min Rain = 0
KHA2 241653Z 32004KT 15/07 A3001 RMK A01 T01520074  RH  060%=      5-min Rain = 0
KHA2 241654Z 32003KT 15/08 A3001 RMK A01 T01520075  RH  060%=      5-min Rain = 0
KHA2 241655Z 32003KT 15/07 A3001 RMK A01 T01530073  RH  059%=      5-min Rain = 0
KHA2 241656Z 31003KT 15/07 A3001 RMK A01 T01530073  RH  059%=      5-min Rain = 0
KHA2 241657Z 31003KT 15/07 A3001 RMK A01 T01530070  RH  057%=      5-min Rain = 0
KHA2 241658Z 33004KT 15/08 A3001 RMK A01 T01530075  RH  060%=      5-min Rain = 0
KHA2 241659Z 34008KT 15/08 A3001 RMK A01 T01540076  RH  060%=      5-min Rain = 0
KHA2 241700Z 34006KT 16/08 A3001 RMK A01 T01550075  RH  059%=      5-min Rain = 0
KHA2 241701Z 35007KT 15/07 A3001 RMK A01 T01540074  RH  059%=      5-min Rain = 0
KHA2 241702Z 33007KT 16/08 A3001 RMK A01 T01550081  RH  061%=      5-min Rain = 0
KHA2 241703Z 32007KT 16/08 A3001 RMK A01 T01570077  RH  059%=      5-min Rain = 0
KHA2 241704Z 30005KT 16/08 A3001 RMK A01 T01570078  RH  059%=      5-min Rain = 0
KHA2 241705Z 30006KT 16/08 A3001 RMK A01 T01570078  RH  059%=      5-min Rain = 0
KHA2 241706Z 29008KT 16/08 A3001 RMK A01 T01590083  RH  061%=      5-min Rain = 0
KHA2 241707Z 29008KT 16/08 A3001 RMK A01 T01600082  RH  060%=      5-min Rain = 0
KHA2 241708Z 30007KT 16/08 A3001 RMK A01 T01600083  RH  060%=      5-min Rain = 0
KHA2 241709Z 29004KT 16/08 A3001 RMK A01 T01590077  RH  058%=      5-min Rain = 0
KHA2 241710Z 28004KT 16/08 A3001 RMK A01 T01580076  RH  058%=      5-min Rain = 0
KHA2 241711Z 27006KT 16/08 A3001 RMK A01 T01580077  RH  059%=      5-min Rain = 0
KHA2 241712Z 28005KT 16/07 A3001 RMK A01 T01580074  RH  058%=      5-min Rain = 0
KHA2 241713Z 26004KT 16/07 A3001 RMK A01 T01570073  RH  057%=      5-min Rain = 0
KHA2 241714Z 25003KT 16/08 A3001 RMK A01 T01560075  RH  058%=      5-min Rain = 0
KHA2 241715Z 30004KT 16/08 A3001 RMK A01 T01580080  RH  060%=      5-min Rain = 0
KHA2 241716Z 34004KT 16/08 A3001 RMK A01 T01610082  RH  060%=      5-min Rain = 0
KHA2 241717Z 36004KT 16/07 A30 RMK A01 T01620073  RH  056%=      5-min Rain = 0
KHA2 241718Z 02005KT 16/07 A30 RMK A01 T01610074  RH  056%=      5-min Rain = 0
KHA2 241719Z 03004KT 16/07 A30 RMK A01 T01610073  RH  056%=      5-min Rain = 0
KHA2 241720Z 01003KT 16/07 A30 RMK A01 T01610072  RH  055%=      5-min Rain = 0
KHA2 241721Z 34005KT 16/08 A30 RMK A01 T01610077  RH  057%=      5-min Rain = 0
KHA2 241722Z 33006KT 16/08 A30 RMK A01 T01620077  RH  057%=      5-min Rain = 0
KHA2 241723Z 33007KT 16/08 A30 RMK A01 T01620079  RH  058%=      5-min Rain = 0
KHA2 241724Z 34005KT 16/08 A30 RMK A01 T01620076  RH  057%=      5-min Rain = 0
KHA2 241725Z 34004KT 16/07 A30 RMK A01 T01600070  RH  055%=      5-min Rain = 0
KHA2 241726Z 34002KT 16/07 A30 RMK A01 T01580068  RH  055%=      5-min Rain = 0
KHA2 241727Z 32002KT 16/07 A30 RMK A01 T01580074  RH  058%=      5-min Rain = 0
KHA2 241728Z 33004KT 16/08 A30 RMK A01 T01600078  RH  058%=      5-min Rain = 0
KHA2 241729Z 35003KT 16/09 A30 RMK A01 T01630088  RH  061%=      5-min Rain = 0
KHA2 241730Z 00008KT 17/09 A2999 RMK A01 T01660085  RH  058%=      5-min Rain = 0
KHA2 241731Z 34009KT 17/09 A2999 RMK A01 T01680085  RH  058%=      5-min Rain = 0
KHA2 241732Z 33009KT 17/09 A2999 RMK A01 T01680085  RH  058%=      5-min Rain = 0
KHA2 241733Z 35008KT 17/09 A2999 RMK A01 T01680089  RH  060%=      5-min Rain = 0
KHA2 241734Z 34007KT 17/08 A2999 RMK A01 T01670076  RH  055%=      5-min Rain = 0
KHA2 241735Z 01007KT 16/07 A2999 RMK A01 T01620074  RH  056%=      5-min Rain = 0
KHA2 241736Z 36006KT 16/07 A2999 RMK A01 T01600069  RH  055%=      5-min Rain = 0
KHA2 241737Z 34001KT 16/07 A2999 RMK A01 T01580069  RH  056%=      5-min Rain = 0
KHA2 241738Z 36002KT 16/08 A2999 RMK A01 T01580080  RH  060%=      5-min Rain = 0
KHA2 241739Z 35004KT 16/08 A2999 RMK A01 T01610076  RH  057%=      5-min Rain = 0
KHA2 241740Z 35007KT 16/08 A2999 RMK A01 T01630083  RH  059%=      5-min Rain = 0
KHA2 241741Z 34007KT 17/08 A2999 RMK A01 T01670084  RH  058%=      5-min Rain = 0
KHA2 241742Z 32007KT 17/08 A2999 RMK A01 T01670078  RH  056%=      5-min Rain = 0
KHA2 241743Z 30005KT 17/08 A2999 RMK A01 T01660078  RH  056%=      5-min Rain = 0
KHA2 241744Z 32005KT 17/08 A2999 RMK A01 T01650079  RH  057%=      5-min Rain = 0
KHA2 241745Z 33005KT 16/08 A2999 RMK A01 T01640075  RH  055%=      5-min Rain = 0
KHA2 241746Z 00003KT 16/07 A2999 RMK A01 T01630070  RH  054%=      5-min Rain = 0
KHA2 241747Z 00004KT 16/07 A2999 RMK A01 T01630070  RH  054%=      5-min Rain = 0
KHA2 241748Z 00002KT 16/07 A2999 RMK A01 T01630070  RH  054%=      5-min Rain = 0
KHA2 241749Z 32003KT 16/07 A2999 RMK A01 T01630073  RH  055%=      5-min Rain = 0
KHA2 241750Z 33006KT 16/07 A2998 RMK A01 T01640072  RH  055%=      5-min Rain = 0
KHA2 241751Z 33006KT 16/07 A2998 RMK A01 T01640070  RH  054%=      5-min Rain = 0
KHA2 241752Z 33005KT 16/07 A2998 RMK A01 T01630070  RH  054%=      5-min Rain = 0
KHA2 241753Z 00002KT 16/07 A2998 RMK A01 T01620068  RH  054%=      5-min Rain = 0
KHA2 241754Z 33003KT 16/07 A2998 RMK A01 T01610069  RH  054%=      5-min Rain = 0
KHA2 241755Z 32004KT 16/08 A2998 RMK A01 T01630076  RH  056%=      5-min Rain = 0
KHA2 241756Z 32003KT 16/07 A2998 RMK A01 T01640074  RH  055%=      5-min Rain = 0
KHA2 241757Z 33002KT 17/07 A2998 RMK A01 T01660074  RH  055%=      5-min Rain = 0
KHA2 241758Z 33004KT 17/08 A2998 RMK A01 T01670075  RH  054%=      5-min Rain = 0
KHA2 241759Z 33008KT 17/07 A2998 RMK A01 T01680072  RH  053%=      5-min Rain = 0
KHA2 241800Z 33008KT 17/08 A2998 RMK A01 T01680075  RH  054%=      5-min Rain = 0
KHA2 241801Z 33007KT 17/07 A2998 RMK A01 T01670073  RH  053%=      5-min Rain = 0
KHA2 241802Z 33003KT 17/07 A2998 RMK A01 T01670067  RH  052%=      5-min Rain = 0
KHA2 241803Z 33002KT 17/07 A2998 RMK A01 T01650073  RH  054%=      5-min Rain = 0
KHA2 241804Z 36002KT 17/07 A2998 RMK A01 T01660071  RH  053%=      5-min Rain = 0
KHA2 241805Z 00001KT 17/07 A2998 RMK A01 T01670074  RH  054%=      5-min Rain = 0
KHA2 241806Z 26000KT 17/07 A2998 RMK A01 T01670069  RH  052%=      5-min Rain = 0
KHA2 241807Z 34001KT 17/07 A2998 RMK A01 T01680068  RH  052%=      5-min Rain = 0
KHA2 241808Z 01001KT 17/07 A2998 RMK A01 T01680073  RH  053%=      5-min Rain = 0
KHA2 241809Z 05003KT 17/07 A2998 RMK A01 T01700074  RH  053%=      5-min Rain = 0
KHA2 241810Z 03004KT 17/08 A2998 RMK A01 T01700077  RH  054%=      5-min Rain = 0
KHA2 241811Z 07003KT 17/07 A2998 RMK A01 T01700073  RH  053%=      5-min Rain = 0
KHA2 241812Z 06003KT 17/08 A2998 RMK A01 T01700077  RH  054%=      5-min Rain = 0
KHA2 241813Z 04002KT 17/08 A2998 RMK A01 T01700077  RH  054%=      5-min Rain = 0
KHA2 241814Z 32006KT 17/08 A2998 RMK A01 T01700077  RH  054%=      5-min Rain = 0
KHA2 241815Z 32007KT 17/08 A2998 RMK A01 T01700079  RH  055%=      5-min Rain = 0
KHA2 241816Z 31006KT 17/08 A2998 RMK A01 T01700075  RH  053%=      5-min Rain = 0
KHA2 241817Z 34005KT 17/07 A2998 RMK A01 T01700074  RH  053%=      5-min Rain = 0
KHA2 241818Z 31008KT 17/08 A2998 RMK A01 T01710082  RH  056%=      5-min Rain = 0
KHA2 241819Z 29005KT 17/08 A2998 RMK A01 T01720075  RH  053%=      5-min Rain = 0
KHA2 241820Z 28003KT 17/07 A2998 RMK A01 T01720074  RH  053%=      5-min Rain = 0
KHA2 241821Z 29003KT 17/07 A2998 RMK A01 T01700068  RH  051%=      5-min Rain = 0
KHA2 241822Z 31003KT 17/07 A2998 RMK A01 T01700070  RH  052%=      5-min Rain = 0
KHA2 241823Z 31001KT 17/06 A2998 RMK A01 T01700064  RH  050%=      5-min Rain = 0
KHA2 241824Z 31004KT 17/07 A2998 RMK A01 T01700073  RH  053%=      5-min Rain = 0
KHA2 241825Z 27001KT 17/07 A2998 RMK A01 T01710071  RH  052%=      5-min Rain = 0
KHA2 241826Z 34003KT 17/08 A2998 RMK A01 T01720075  RH  053%=      5-min Rain = 0
KHA2 241827Z 02002KT 17/07 A2998 RMK A01 T01720070  RH  051%=      5-min Rain = 0
KHA2 241828Z 35001KT 17/07 A2998 RMK A01 T01720073  RH  052%=      5-min Rain = 0
KHA2 241829Z 31002KT 17/08 A2998 RMK A01 T01720078  RH  054%=      5-min Rain = 0
KHA2 241830Z 29002KT 17/07 A2998 RMK A01 T01740074  RH  052%=      5-min Rain = 0
KHA2 241831Z 27004KT 17/07 A2997 RMK A01 T01740073  RH  052%=      5-min Rain = 0
KHA2 241832Z 29005KT 17/08 A2997 RMK A01 T01740081  RH  054%=      5-min Rain = 0
KHA2 241833Z 26004KT 18/08 A2997 RMK A01 T01770079  RH  053%=      5-min Rain = 0
KHA2 241834Z 26003KT 18/07 A2997 RMK A01 T01760071  RH  050%=      5-min Rain = 0
KHA2 241835Z 22002KT 17/07 A2997 RMK A01 T01740074  RH  052%=      5-min Rain = 0
KHA2 241836Z 25003KT 18/08 A2997 RMK A01 T01750078  RH  053%=      5-min Rain = 0
KHA2 241837Z 27007KT 18/08 A2997 RMK A01 T01770081  RH  053%=      5-min Rain = 0
KHA2 241838Z 28008KT 18/08 A2997 RMK A01 T01800077  RH  051%=      5-min Rain = 0
KHA2 241839Z 26008KT 18/07 A2997 RMK A01 T01790074  RH  050%=      5-min Rain = 0
KHA2 241840Z 26007KT 18/07 A2997 RMK A01 T01780072  RH  050%=      5-min Rain = 0
KHA2 241841Z 26005KT 18/07 A2997 RMK A01 T01760066  RH  049%=      5-min Rain = 0
KHA2 241842Z 24004KT 17/07 A2997 RMK A01 T01740066  RH  049%=      5-min Rain = 0
KHA2 241843Z 23002KT 17/07 A2997 RMK A01 T01740069  RH  050%=      5-min Rain = 0
KHA2 241844Z 29004KT 18/07 A2997 RMK A01 T01760070  RH  050%=      5-min Rain = 0
KHA2 241845Z 30004KT 18/07 A2997 RMK A01 T01770069  RH  049%=      5-min Rain = 0
KHA2 241846Z 32002KT 18/07 A2998 RMK A01 T01760073  RH  051%=      5-min Rain = 0
KHA2 241847Z 32000KT 18/07 A2998 RMK A01 T01760069  RH  049%=      5-min Rain = 0
KHA2 241848Z 06001KT 18/07 A2997 RMK A01 T01760069  RH  049%=      5-min Rain = 0
KHA2 241849Z 02002KT 18/07 A2997 RMK A01 T01770068  RH  049%=      5-min Rain = 0
KHA2 241850Z 04000KT 18/08 A2997 RMK A01 T01770077  RH  052%=      5-min Rain = 0
KHA2 241851Z 25003KT 18/08 A2997 RMK A01 T01800080  RH  052%=      5-min Rain = 0
KHA2 241852Z 25004KT 18/08 A2997 RMK A01 T01800076  RH  050%=      5-min Rain = 0
KHA2 241853Z 29003KT 18/07 A2997 RMK A01 T01780067  RH  048%=      5-min Rain = 0
KHA2 241854Z 28003KT 18/07 A2997 RMK A01 T01760068  RH  049%=      5-min Rain = 0
KHA2 241855Z 24002KT 18/07 A2997 RMK A01 T01760071  RH  050%=      5-min Rain = 0
KHA2 241856Z 31000KT 18/08 A2997 RMK A01 T01770078  RH  052%=      5-min Rain = 0
KHA2 241857Z 33003KT 18/08 A2997 RMK A01 T01800080  RH  052%=      5-min Rain = 0
KHA2 241858Z 34005KT 18/08 A2997 RMK A01 T01830082  RH  052%=      5-min Rain = 0
KHA2 241859Z 34004KT 18/07 A2997 RMK A01 T01830074  RH  049%=      5-min Rain = 0
KHA2 241900Z 34003KT 18/07 A2997 RMK A01 T01800071  RH  049%=      5-min Rain = 0
KHA2 241901Z 28004KT 18/08 A2997 RMK A01 T01790080  RH  052%=      5-min Rain = 0
KHA2 241902Z 31007KT 18/08 A2997 RMK A01 T01820080  RH  051%=      5-min Rain = 0
KHA2 241903Z 30010KT 18/08 A2997 RMK A01 T01840081  RH  051%=      5-min Rain = 0
KHA2 241904Z 30007KT 18/07 A2997 RMK A01 T01840074  RH  049%=      5-min Rain = 0
KHA2 241905Z 29007KT 18/07 A2997 RMK A01 T01820072  RH  049%=      5-min Rain = 0
KHA2 241906Z 27008KT 18/07 A2996 RMK A01 T01800073  RH  050%=      5-min Rain = 0
KHA2 241907Z 28007KT 18/08 A2996 RMK A01 T01800078  RH  051%=      5-min Rain = 0
KHA2 241908Z 28006KT 18/08 A2996 RMK A01 T01830080  RH  051%=      5-min Rain = 0
KHA2 241909Z 28006KT 18/07 A2996 RMK A01 T01830070  RH  047%=      5-min Rain = 0
KHA2 241910Z 29005KT 18/07 A2996 RMK A01 T01820073  RH  049%=      5-min Rain = 0
KHA2 241911Z 29003KT 18/07 A2996 RMK A01 T01820068  RH  048%=      5-min Rain = 0
KHA2 241912Z 32002KT 18/07 A2996 RMK A01 T01800069  RH  048%=      5-min Rain = 0
KHA2 241913Z 26003KT 18/08 A2996 RMK A01 T01810075  RH  050%=      5-min Rain = 0
KHA2 241914Z 25004KT 18/07 A2996 RMK A01 T01820073  RH  049%=      5-min Rain = 0
KHA2 241915Z 31002KT 18/07 A2996 RMK A01 T01810074  RH  049%=      5-min Rain = 0
KHA2 241916Z 33003KT 18/07 A2996 RMK A01 T01810073  RH  049%=      5-min Rain = 0
KHA2 241917Z 35004KT 18/08 A2996 RMK A01 T01820078  RH  051%=      5-min Rain = 0
KHA2 241918Z 33005KT 18/08 A2996 RMK A01 T01830079  RH  051%=      5-min Rain = 0
KHA2 241919Z 32006KT 18/08 A2996 RMK A01 T01840083  RH  052%=      5-min Rain = 0
KHA2 241920Z 30004KT 19/08 A2996 RMK A01 T01850083  RH  051%=      5-min Rain = 0
KHA2 241921Z 31008KT 19/08 A2996 RMK A01 T01870078  RH  049%=      5-min Rain = 0
KHA2 241922Z 32009KT 19/08 A2996 RMK A01 T01860083  RH  051%=      5-min Rain = 0
KHA2 241923Z 31010KT 19/08 A2996 RMK A01 T01880083  RH  050%=      5-min Rain = 0
KHA2 241924Z 32006KT 19/07 A2996 RMK A01 T01860074  RH  048%=      5-min Rain = 0
KHA2 241925Z 35003KT 19/07 A2996 RMK A01 T01850074  RH  048%=      5-min Rain = 0
KHA2 241926Z 34002KT 18/07 A2996 RMK A01 T01830071  RH  048%=      5-min Rain = 0
KHA2 241927Z 32005KT 18/08 A2996 RMK A01 T01830079  RH  051%=      5-min Rain = 0
KHA2 241928Z 34005KT 19/07 A2996 RMK A01 T01850074  RH  048%=      5-min Rain = 0
KHA2 241929Z 35004KT 18/08 A2996 RMK A01 T01840075  RH  049%=      5-min Rain = 0
KHA2 241930Z 34004KT 18/07 A2996 RMK A01 T01840074  RH  048%=      5-min Rain = 0
KHA2 241931Z 32002KT 18/08 A2995 RMK A01 T01830075  RH  049%=      5-min Rain = 0
KHA2 241932Z 32002KT 18/08 A2995 RMK A01 T01830075  RH  049%=      5-min Rain = 0
KHA2 241933Z 24004KT 18/08 A2995 RMK A01 T01840083  RH  052%=      5-min Rain = 0
KHA2 241934Z 26005KT 19/08 A2995 RMK A01 T01870080  RH  050%=      5-min Rain = 0
KHA2 241935Z 32006KT 19/09 A2995 RMK A01 T01890088  RH  052%=      5-min Rain = 0
KHA2 241936Z 31007KT 19/08 A2995 RMK A01 T01930083  RH  049%=      5-min Rain = 0
KHA2 241937Z 30007KT 19/08 A2995 RMK A01 T01920079  RH  048%=      5-min Rain = 0
KHA2 241938Z 31006KT 19/08 A2995 RMK A01 T01930080  RH  048%=      5-min Rain = 0
KHA2 241939Z 31008KT 19/08 A2995 RMK A01 T01920075  RH  047%=      5-min Rain = 0
KHA2 241940Z 30005KT 19/07 A2995 RMK A01 T01900071  RH  046%=      5-min Rain = 0
KHA2 241941Z 30005KT 19/07 A2995 RMK A01 T01880073  RH  047%=      5-min Rain = 0
KHA2 241942Z 29005KT 19/07 A2995 RMK A01 T01870071  RH  047%=      5-min Rain = 0
KHA2 241943Z 28003KT 19/07 A2995 RMK A01 T01870071  RH  047%=      5-min Rain = 0
KHA2 241944Z 31005KT 19/07 A2995 RMK A01 T01870069  RH  046%=      5-min Rain = 0
KHA2 241945Z 28004KT 19/07 A2995 RMK A01 T01870072  RH  047%=      5-min Rain = 0
KHA2 241946Z 32004KT 19/07 A2995 RMK A01 T01870072  RH  047%=      5-min Rain = 0
KHA2 241947Z 33007KT 19/07 A2995 RMK A01 T01870074  RH  048%=      5-min Rain = 0
KHA2 241948Z 35008KT 19/08 A2994 RMK A01 T01880076  RH  048%=      5-min Rain = 0
KHA2 241949Z 34007KT 19/08 A2994 RMK A01 T01900081  RH  049%=      5-min Rain = 0
KHA2 241950Z 30008KT 19/08 A2994 RMK A01 T01920078  RH  048%=      5-min Rain = 0
KHA2 241951Z 30007KT 19/08 A2994 RMK A01 T01920077  RH  047%=      5-min Rain = 0
KHA2 241952Z 33003KT 19/07 A2994 RMK A01 T01920073  RH  046%=      5-min Rain = 0
KHA2 241953Z 34003KT 19/07 A2994 RMK A01 T01900070  RH  046%=      5-min Rain = 0
KHA2 241954Z 33006KT 19/07 A2994 RMK A01 T01890070  RH  046%=      5-min Rain = 0
KHA2 241955Z 34005KT 19/07 A2994 RMK A01 T01870069  RH  046%=      5-min Rain = 0
KHA2 241956Z 32008KT 19/08 A2994 RMK A01 T01860077  RH  049%=      5-min Rain = 0
KHA2 241957Z 33009KT 19/08 A2994 RMK A01 T01890077  RH  048%=      5-min Rain = 0
KHA2 241958Z 31007KT 19/07 A2994 RMK A01 T01890074  RH  047%=      5-min Rain = 0
KHA2 241959Z 28006KT 19/08 A2994 RMK A01 T01890077  RH  048%=      5-min Rain = 0
KHA2 242000Z 27004KT 19/08 A2994 RMK A01 T01900077  RH  048%=      5-min Rain = 0
KHA2 242001Z 26005KT 19/08 A2994 RMK A01 T01920080  RH  048%=      5-min Rain = 0
KHA2 242002Z 25005KT 19/08 A2994 RMK A01 T01930076  RH  047%=      5-min Rain = 0
KHA2 242003Z 28004KT 19/08 A2994 RMK A01 T01940081  RH  048%=      5-min Rain = 0
KHA2 242004Z 33005KT 20/08 A2994 RMK A01 T01950078  RH  047%=      5-min Rain = 0
KHA2 242005Z 33005KT 19/07 A2994 RMK A01 T01940073  RH  045%=      5-min Rain = 0
KHA2 242006Z 34006KT 19/08 A2993 RMK A01 T01930077  RH  047%=      5-min Rain = 0
KHA2 242007Z 33006KT 19/07 A2993 RMK A01 T01930074  RH  046%=      5-min Rain = 0
KHA2 242008Z 34002KT 19/08 A2993 RMK A01 T01920075  RH  046%=      5-min Rain = 0
KHA2 242009Z 35003KT 19/08 A2993 RMK A01 T01920077  RH  047%=      5-min Rain = 0
KHA2 242010Z 34003KT 19/07 A2993 RMK A01 T01930074  RH  046%=      5-min Rain = 0
KHA2 242011Z 35003KT 19/08 A2993 RMK A01 T01920076  RH  047%=      5-min Rain = 0
KHA2 242012Z 30004KT 19/08 A2993 RMK A01 T01930083  RH  049%=      5-min Rain = 0
KHA2 242013Z 31005KT 20/08 A2993 RMK A01 T01950079  RH  047%=      5-min Rain = 0
KHA2 242014Z 32006KT 20/08 A2993 RMK A01 T01960080  RH  047%=      5-min Rain = 0
KHA2 242015Z 29005KT 20/08 A2993 RMK A01 T01980080  RH  046%=      5-min Rain = 0
KHA2 242016Z 32006KT 20/08 A2993 RMK A01 T01980076  RH  045%=      5-min Rain = 0
KHA2 242017Z 32007KT 20/08 A2993 RMK A01 T01970080  RH  047%=      5-min Rain = 0
KHA2 242018Z 33009KT 20/08 A2993 RMK A01 T01980079  RH  046%=      5-min Rain = 0
KHA2 242019Z 33006KT 20/07 A2993 RMK A01 T01980074  RH  045%=      5-min Rain = 0
KHA2 242020Z 31004KT 20/07 A2993 RMK A01 T01960074  RH  045%=      5-min Rain = 0
KHA2 242021Z 33003KT 20/08 A2993 RMK A01 T01950076  RH  046%=      5-min Rain = 0
KHA2 242022Z 34003KT 19/08 A2993 RMK A01 T01940076  RH  046%=      5-min Rain = 0
KHA2 242023Z 35004KT 20/08 A2993 RMK A01 T01950083  RH  048%=      5-min Rain = 0
KHA2 242024Z 34005KT 20/07 A2993 RMK A01 T01960072  RH  045%=      5-min Rain = 0
KHA2 242025Z 34006KT 20/08 A2993 RMK A01 T01950075  RH  046%=      5-min Rain = 0
KHA2 242026Z 35004KT 19/08 A2993 RMK A01 T01930078  RH  047%=      5-min Rain = 0
KHA2 242027Z 31010KT 20/09 A2992 RMK A01 T01950087  RH  049%=      5-min Rain = 0
KHA2 242028Z 29008KT 20/08 A2993 RMK A01 T02000082  RH  047%=      5-min Rain = 0
KHA2 242029Z 29009KT 20/08 A2993 RMK A01 T01990077  RH  045%=      5-min Rain = 0
KHA2 242030Z 33008KT 20/08 A2993 RMK A01 T01990081  RH  047%=      5-min Rain = 0
KHA2 242031Z 31005KT 20/08 A2993 RMK A01 T01990075  RH  045%=      5-min Rain = 0
KHA2 242032Z 30004KT 20/07 A2993 RMK A01 T01980074  RH  045%=      5-min Rain = 0
KHA2 242033Z 30004KT 20/07 A2993 RMK A01 T01970071  RH  044%=      5-min Rain = 0
KHA2 242034Z 33007G12KT 20/08 A2993 RMK A01 T01960076  RH  046%=      5-min Rain = 0
KHA2 242035Z 33012KT 20/08 A2992 RMK A01 T01980079  RH  046%=      5-min Rain = 0
KHA2 242036Z 34008KT 20/08 A2993 RMK A01 T01990077  RH  045%=      5-min Rain = 0
KHA2 242037Z 34005KT 20/08 A2993 RMK A01 T01970076  RH  045%=      5-min Rain = 0
KHA2 242038Z 35005KT 20/08 A2993 RMK A01 T01970082  RH  047%=      5-min Rain = 0
KHA2 242039Z 33005KT 20/08 A2993 RMK A01 T01980079  RH  046%=      5-min Rain = 0
KHA2 242040Z 34005KT 20/08 A2992 RMK A01 T01990081  RH  047%=      5-min Rain = 0
KHA2 242041Z 33004KT 20/07 A2993 RMK A01 T01980074  RH  045%=      5-min Rain = 0
KHA2 242042Z 32003KT 20/07 A2992 RMK A01 T01970074  RH  045%=      5-min Rain = 0
KHA2 242043Z 32004KT 20/07 A2992 RMK A01 T01970070  RH  044%=      5-min Rain = 0
KHA2 242044Z 34002KT 20/07 A2992 RMK A01 T01970073  RH  045%=      5-min Rain = 0
KHA2 242045Z 08001KT 20/07 A2992 RMK A01 T01960071  RH  044%=      5-min Rain = 0
KHA2 242046Z 06001KT 20/07 A2992 RMK A01 T01960074  RH  045%=      5-min Rain = 0
KHA2 242047Z 10001KT 20/07 A2992 RMK A01 T01960072  RH  045%=      5-min Rain = 0
KHA2 242048Z 35000KT 20/08 A2992 RMK A01 T01970079  RH  046%=      5-min Rain = 0
KHA2 242049Z 31003KT 20/08 A2992 RMK A01 T02000083  RH  047%=      5-min Rain = 0
KHA2 242050Z 30007KT 20/08 A2992 RMK A01 T02020080  RH  045%=      5-min Rain = 0
KHA2 242051Z 29007KT 20/08 A2992 RMK A01 T02030078  RH  045%=      5-min Rain = 0
KHA2 242052Z 32009KT 20/08 A2992 RMK A01 T02020078  RH  045%=      5-min Rain = 0
KHA2 242053Z 34006KT 20/08 A2992 RMK A01 T02020079  RH  045%=      5-min Rain = 0
KHA2 242054Z 33004KT 20/08 A2992 RMK A01 T02000075  RH  044%=      5-min Rain = 0
KHA2 242055Z 27005KT 20/08 A2992 RMK A01 T02000083  RH  047%=      5-min Rain = 0
KHA2 242056Z 29006KT 20/08 A2992 RMK A01 T02030083  RH  046%=      5-min Rain = 0
KHA2 242057Z 31008KT 21/08 A2992 RMK A01 T02050079  RH  044%=      5-min Rain = 0
KHA2 242058Z 34006KT 21/09 A2992 RMK A01 T02060086  RH  046%=      5-min Rain = 0
KHA2 242059Z 36003KT 21/08 A2992 RMK A01 T02070080  RH  044%=      5-min Rain = 0
KHA2 242100Z 33003KT 21/08 A2992 RMK A01 T02070082  RH  045%=      5-min Rain = 0
KHA2 242101Z 34004KT 21/08 A2992 RMK A01 T02060083  RH  045%=      5-min Rain = 0
KHA2 242102Z 32006KT 21/08 A2992 RMK A01 T02070076  RH  043%=      5-min Rain = 0
KHA2 242103Z 35006KT 20/07 A2992 RMK A01 T02040073  RH  043%=      5-min Rain = 0
KHA2 242104Z 01007KT 20/08 A2992 RMK A01 T02030077  RH  044%=      5-min Rain = 0
KHA2 242105Z 02007KT 20/08 A2992 RMK A01 T02010077  RH  045%=      5-min Rain = 0
KHA2 242106Z 36008KT 20/08 A2992 RMK A01 T02010078  RH  045%=      5-min Rain = 0
KHA2 242107Z 35006KT 20/08 A2992 RMK A01 T02020079  RH  045%=      5-min Rain = 0
KHA2 242108Z 36005KT 20/08 A2991 RMK A01 T02030075  RH  044%=      5-min Rain = 0
KHA2 242109Z 01006KT 20/08 A2991 RMK A01 T02030077  RH  044%=      5-min Rain = 0
KHA2 242110Z 01005KT 20/07 A2991 RMK A01 T02010071  RH  043%=      5-min Rain = 0
KHA2 242111Z 03004KT 20/08 A2991 RMK A01 T01990076  RH  045%=      5-min Rain = 0
KHA2 242112Z 03003KT 20/07 A2991 RMK A01 T01990072  RH  044%=      5-min Rain = 0
KHA2 242113Z 02003KT 20/08 A2991 RMK A01 T01990078  RH  045%=      5-min Rain = 0
KHA2 242114Z 01003KT 20/08 A2991 RMK A01 T02000075  RH  044%=      5-min Rain = 0
KHA2 242115Z 33002KT 20/08 A2991 RMK A01 T02000075  RH  045%=      5-min Rain = 0
KHA2 242116Z 31003KT 20/08 A2991 RMK A01 T02000082  RH  046%=      5-min Rain = 0
KHA2 242117Z 25002KT 20/08 A2991 RMK A01 T02020076  RH  044%=      5-min Rain = 0
KHA2 242118Z 01004KT 20/09 A2991 RMK A01 T02030087  RH  047%=      5-min Rain = 0
KHA2 242119Z 36004KT 21/08 A2991 RMK A01 T02050077  RH  044%=      5-min Rain = 0
KHA2 242120Z 35003KT 20/08 A2991 RMK A01 T02030082  RH  046%=      5-min Rain = 0
KHA2 242121Z 35004KT 20/09 A2991 RMK A01 T02040086  RH  047%=      5-min Rain = 0
KHA2 242122Z 01006KT 21/08 A2991 RMK A01 T02060080  RH  044%=      5-min Rain = 0
KHA2 242123Z 01003KT 20/07 A2991 RMK A01 T02040072  RH  042%=      5-min Rain = 0
KHA2 242124Z 03001KT 20/07 A2991 RMK A01 T02020073  RH  043%=      5-min Rain = 0
KHA2 242125Z 09000KT 20/08 A2991 RMK A01 T02010076  RH  044%=      5-min Rain = 0
KHA2 242126Z 08001KT 20/08 A2991 RMK A01 T02030078  RH  044%=      5-min Rain = 0
KHA2 242127Z 10001KT 20/07 A2991 RMK A01 T02040072  RH  043%=      5-min Rain = 0
KHA2 242128Z 12001KT 20/08 A2991 RMK A01 T02040078  RH  044%=      5-min Rain = 0
KHA2 242129Z 02001KT 21/09 A2991 RMK A01 T02060090  RH  047%=      5-min Rain = 0
KHA2 242130Z 35005KT 21/09 A2991 RMK A01 T02080086  RH  045%=      5-min Rain = 0
KHA2 242131Z 35004KT 21/08 A2991 RMK A01 T02090078  RH  043%=      5-min Rain = 0
KHA2 242132Z 34003KT 21/08 A2991 RMK A01 T02080079  RH  043%=      5-min Rain = 0
KHA2 242133Z 34003KT 21/08 A299 RMK A01 T02070079  RH  043%=      5-min Rain = 0
KHA2 242134Z 27005KT 21/08 A299 RMK A01 T02080079  RH  043%=      5-min Rain = 0
KHA2 242135Z 26003KT 21/07 A299 RMK A01 T02080071  RH  041%=      5-min Rain = 0
KHA2 242136Z 20002KT 21/07 A299 RMK A01 T02050073  RH  042%=      5-min Rain = 0
KHA2 242137Z 20002KT 21/08 A299 RMK A01 T02050075  RH  043%=      5-min Rain = 0
KHA2 242138Z 25002KT 21/08 A299 RMK A01 T02060075  RH  043%=      5-min Rain = 0
KHA2 242139Z 27004KT 21/07 A299 RMK A01 T02070074  RH  042%=      5-min Rain = 0
KHA2 242140Z 30008KT 21/08 A299 RMK A01 T02090080  RH  043%=      5-min Rain = 0
KHA2 242141Z 28008KT 21/08 A299 RMK A01 T02110081  RH  043%=      5-min Rain = 0
KHA2 242142Z 29008KT 21/07 A299 RMK A01 T02100074  RH  042%=      5-min Rain = 0
KHA2 242143Z 30007KT 21/07 A299 RMK A01 T02060073  RH  042%=      5-min Rain = 0
KHA2 242144Z 28006KT 20/07 A299 RMK A01 T02040073  RH  043%=      5-min Rain = 0
KHA2 242145Z 30008KT 20/08 A299 RMK A01 T02030075  RH  043%=      5-min Rain = 0
KHA2 242146Z 29007KT 20/07 A299 RMK A01 T02020074  RH  043%=      5-min Rain = 0
KHA2 242147Z 28007KT 20/07 A299 RMK A01 T02030072  RH  043%=      5-min Rain = 0
KHA2 242148Z 29007KT 20/07 A299 RMK A01 T02020074  RH  043%=      5-min Rain = 0
KHA2 242149Z 28007KT 20/07 A299 RMK A01 T02010074  RH  044%=      5-min Rain = 0
KHA2 242150Z 29006KT 20/07 A299 RMK A01 T02000073  RH  044%=      5-min Rain = 0
KHA2 242151Z 28006KT 20/07 A299 RMK A01 T01990074  RH  044%=      5-min Rain = 0
KHA2 242152Z 29005KT 20/07 A299 RMK A01 T01990073  RH  044%=      5-min Rain = 0
KHA2 242153Z 29005KT 20/08 A299 RMK A01 T01990077  RH  045%=      5-min Rain = 0
KHA2 242154Z 27004KT 20/08 A299 RMK A01 T02010076  RH  045%=      5-min Rain = 0
KHA2 242155Z 27003KT 20/07 A299 RMK A01 T02010074  RH  044%=      5-min Rain = 0
KHA2 242156Z 28002KT 20/07 A299 RMK A01 T02010071  RH  043%=      5-min Rain = 0
KHA2 242157Z 33002KT 20/07 A299 RMK A01 T02000072  RH  043%=      5-min Rain = 0
KHA2 242158Z 31002KT 20/07 A299 RMK A01 T01990073  RH  044%=      5-min Rain = 0
KHA2 242159Z 32005KT 20/07 A299 RMK A01 T01990074  RH  044%=      5-min Rain = 0
KHA2 242200Z 32006KT 20/08 A299 RMK A01 T02010077  RH  045%=      5-min Rain = 0
KHA2 242201Z 31005KT 20/08 A299 RMK A01 T02010077  RH  044%=      5-min Rain = 0
KHA2 242202Z 32005KT 20/08 A299 RMK A01 T02010076  RH  044%=      5-min Rain = 0
KHA2 242203Z 30005KT 20/08 A299 RMK A01 T02000077  RH  045%=      5-min Rain = 0
KHA2 242204Z 33004KT 20/07 A299 RMK A01 T02000073  RH  044%=      5-min Rain = 0
KHA2 242205Z 34002KT 20/07 A299 RMK A01 T02000073  RH  044%=      5-min Rain = 0
KHA2 242206Z 30003KT 20/08 A299 RMK A01 T02010077  RH  045%=      5-min Rain = 0
KHA2 242207Z 31004KT 20/08 A299 RMK A01 T02030076  RH  044%=      5-min Rain = 0
KHA2 242208Z 32004KT 20/07 A299 RMK A01 T02040074  RH  043%=      5-min Rain = 0
KHA2 242209Z 33002KT 20/07 A299 RMK A01 T02040072  RH  043%=      5-min Rain = 0
KHA2 242210Z 34002KT 20/07 A299 RMK A01 T02040074  RH  043%=      5-min Rain = 0
KHA2 242211Z 36003KT 21/08 A299 RMK A01 T02060083  RH  045%=      5-min Rain = 0
KHA2 242212Z 00001KT 21/09 A299 RMK A01 T02070087  RH  046%=      5-min Rain = 0
KHA2 242213Z 31003KT 21/08 A299 RMK A01 T02100081  RH  043%=      5-min Rain = 0
KHA2 242214Z 29006KT 21/07 A299 RMK A01 T02100074  RH  041%=      5-min Rain = 0
KHA2 242215Z 29007KT 21/08 A299 RMK A01 T02090077  RH  042%=      5-min Rain = 0
KHA2 242216Z 29005KT 21/07 A299 RMK A01 T02080072  RH  041%=      5-min Rain = 0
KHA2 242217Z 27005KT 21/08 A299 RMK A01 T02070075  RH  043%=      5-min Rain = 0
KHA2 242218Z 31006KT 21/08 A299 RMK A01 T02070079  RH  043%=      5-min Rain = 0
KHA2 242219Z 33005KT 21/07 A299 RMK A01 T02090074  RH  042%=      5-min Rain = 0
KHA2 242220Z 33002KT 21/07 A299 RMK A01 T02080070  RH  041%=      5-min Rain = 0
KHA2 242221Z 32003KT 21/07 A299 RMK A01 T02070074  RH  042%=      5-min Rain = 0
KHA2 242222Z 33004KT 21/07 A299 RMK A01 T02070074  RH  042%=      5-min Rain = 0
KHA2 242223Z 32003KT 21/07 A299 RMK A01 T02060073  RH  042%=      5-min Rain = 0
KHA2 242224Z 31003KT 21/07 A2989 RMK A01 T02050073  RH  042%=      5-min Rain = 0
KHA2 242225Z 35007KT 21/08 A2989 RMK A01 T02050077  RH  044%=      5-min Rain = 0
KHA2 242226Z 36007KT 21/08 A2989 RMK A01 T02050077  RH  044%=      5-min Rain = 0
KHA2 242227Z 35008KT 21/08 A2989 RMK A01 T02050078  RH  044%=      5-min Rain = 0
KHA2 242228Z 33009KT 21/08 A2989 RMK A01 T02050077  RH  044%=      5-min Rain = 0
KHA2 242229Z 33008KT 21/08 A2989 RMK A01 T02060075  RH  043%=      5-min Rain = 0
KHA2 242230Z 34007KT 21/08 A2989 RMK A01 T02060077  RH  044%=      5-min Rain = 0
KHA2 242231Z 32007KT 21/08 A2989 RMK A01 T02060077  RH  043%=      5-min Rain = 0
KHA2 242232Z 33006KT 21/08 A2989 RMK A01 T02070075  RH  043%=      5-min Rain = 0
KHA2 242233Z 34009KT 21/08 A2989 RMK A01 T02080079  RH  043%=      5-min Rain = 0
KHA2 242234Z 35008KT 21/08 A2989 RMK A01 T02080076  RH  042%=      5-min Rain = 0
KHA2 242235Z 35007KT 21/07 A2989 RMK A01 T02070072  RH  042%=      5-min Rain = 0
KHA2 242236Z 34008KT 21/08 A2989 RMK A01 T02050077  RH  043%=      5-min Rain = 0
KHA2 242237Z 34006KT 21/07 A2989 RMK A01 T02050074  RH  043%=      5-min Rain = 0
KHA2 242238Z 35007KT 21/08 A2989 RMK A01 T02050075  RH  043%=      5-min Rain = 0
KHA2 242239Z 35006KT 21/07 A2989 RMK A01 T02050074  RH  043%=      5-min Rain = 0
KHA2 242240Z 36005KT 20/08 A2989 RMK A01 T02040076  RH  044%=      5-min Rain = 0
KHA2 242241Z 35005KT 20/08 A2989 RMK A01 T02040076  RH  043%=      5-min Rain = 0
KHA2 242242Z 36006KT 21/07 A2989 RMK A01 T02050074  RH  043%=      5-min Rain = 0
KHA2 242243Z 01006KT 21/07 A2989 RMK A01 T02050072  RH  042%=      5-min Rain = 0
KHA2 242244Z 03005KT 20/07 A2989 RMK A01 T02030070  RH  042%=      5-min Rain = 0
KHA2 242245Z 04004KT 20/07 A2989 RMK A01 T02020073  RH  043%=      5-min Rain = 0
KHA2 242246Z 04005KT 20/08 A2989 RMK A01 T02010075  RH  044%=      5-min Rain = 0
KHA2 242247Z 02005KT 20/07 A2989 RMK A01 T02020073  RH  043%=      5-min Rain = 0
KHA2 242248Z 04006KT 20/08 A2989 RMK A01 T02020076  RH  044%=      5-min Rain = 0
KHA2 242249Z 34005KT 20/08 A2989 RMK A01 T02020081  RH  045%=      5-min Rain = 0
KHA2 242250Z 33008KT 21/08 A2989 RMK A01 T02050076  RH  043%=      5-min Rain = 0
KHA2 242251Z 33006KT 21/08 A2989 RMK A01 T02050075  RH  043%=      5-min Rain = 0
KHA2 242252Z 32004KT 21/07 A2989 RMK A01 T02050074  RH  043%=      5-min Rain = 0
KHA2 242253Z 31007KT 21/08 A2989 RMK A01 T02050076  RH  043%=      5-min Rain = 0
KHA2 242254Z 31007KT 21/08 A2989 RMK A01 T02070078  RH  043%=      5-min Rain = 0
KHA2 242255Z 29004KT 21/07 A2989 RMK A01 T02090072  RH  041%=      5-min Rain = 0
KHA2 242256Z 31003KT 21/07 A2989 RMK A01 T02080072  RH  041%=      5-min Rain = 0
KHA2 242257Z 31005KT 21/08 A2989 RMK A01 T02080075  RH  042%=      5-min Rain = 0
KHA2 242258Z 29005KT 21/08 A2989 RMK A01 T02080076  RH  042%=      5-min Rain = 0
KHA2 242259Z 30003KT 21/07 A2989 RMK A01 T02070073  RH  042%=      5-min Rain = 0
KHA2 242300Z 32004KT 21/07 A2989 RMK A01 T02060074  RH  043%=      5-min Rain = 0
KHA2 242301Z 35006KT 21/08 A2989 RMK A01 T02060077  RH  043%=      5-min Rain = 0
KHA2 242302Z 00006KT 21/08 A2989 RMK A01 T02060076  RH  043%=      5-min Rain = 0
KHA2 242303Z 35006KT 21/08 A2989 RMK A01 T02050076  RH  043%=      5-min Rain = 0
KHA2 242304Z 32006KT 20/08 A2989 RMK A01 T02040077  RH  044%=      5-min Rain = 0
KHA2 242305Z 34007KT 21/08 A2989 RMK A01 T02060079  RH  044%=      5-min Rain = 0
KHA2 242306Z 35008KT 21/08 A2989 RMK A01 T02070077  RH  043%=      5-min Rain = 0
KHA2 242307Z 35008KT 21/08 A2989 RMK A01 T02070075  RH  042%=      5-min Rain = 0
KHA2 242308Z 35006KT 21/07 A2989 RMK A01 T02060073  RH  042%=      5-min Rain = 0
KHA2 242309Z 35006KT 21/08 A2989 RMK A01 T02050076  RH  043%=      5-min Rain = 0
KHA2 242310Z 35006KT 21/07 A2989 RMK A01 T02050072  RH  042%=      5-min Rain = 0
KHA2 242311Z 36004KT 20/07 A2989 RMK A01 T02040072  RH  043%=      5-min Rain = 0
KHA2 242312Z 36006KT 20/08 A2989 RMK A01 T02030075  RH  043%=      5-min Rain = 0
KHA2 242313Z 00005KT 20/07 A2989 RMK A01 T02040073  RH  043%=      5-min Rain = 0
KHA2 242314Z 36006KT 20/07 A2989 RMK A01 T02040074  RH  043%=      5-min Rain = 0
KHA2 242315Z 02006KT 20/07 A2989 RMK A01 T02040073  RH  043%=      5-min Rain = 0
KHA2 242316Z 36005KT 20/08 A2989 RMK A01 T02040075  RH  043%=      5-min Rain = 0
KHA2 242317Z 01006KT 20/07 A2989 RMK A01 T02040071  RH  042%=      5-min Rain = 0
KHA2 242318Z 35005KT 20/07 A2989 RMK A01 T02040070  RH  042%=      5-min Rain = 0
KHA2 242319Z 36008KT 21/07 A2989 RMK A01 T02050072  RH  042%=      5-min Rain = 0
KHA2 242320Z 35008KT 21/07 A2989 RMK A01 T02060072  RH  042%=      5-min Rain = 0
KHA2 242321Z 34008KT 21/07 A2989 RMK A01 T02060072  RH  042%=      5-min Rain = 0
KHA2 242322Z 35009KT 21/07 A2989 RMK A01 T02070071  RH  041%=      5-min Rain = 0
KHA2 242323Z 35009KT 21/07 A2989 RMK A01 T02070068  RH  040%=      5-min Rain = 0
KHA2 242324Z 00008KT 21/07 A2989 RMK A01 T02060067  RH  040%=      5-min Rain = 0
KHA2 242325Z 00008KT 20/07 A2989 RMK A01 T02040070  RH  042%=      5-min Rain = 0
KHA2 242326Z 36007KT 20/07 A2989 RMK A01 T02040070  RH  042%=      5-min Rain = 0
KHA2 242327Z 01006KT 20/07 A2989 RMK A01 T02040065  RH  041%=      5-min Rain = 0
KHA2 242328Z 36006KT 20/07 A2989 RMK A01 T02030068  RH  042%=      5-min Rain = 0
KHA2 242329Z 01006KT 20/07 A2989 RMK A01 T02030071  RH  042%=      5-min Rain = 0
KHA2 242330Z 00006KT 20/07 A2989 RMK A01 T02030068  RH  042%=      5-min Rain = 0
KHA2 242331Z 03006KT 20/07 A2989 RMK A01 T02030070  RH  042%=      5-min Rain = 0
KHA2 242332Z 02005KT 20/07 A2989 RMK A01 T02020066  RH  041%=      5-min Rain = 0
KHA2 242333Z 35006KT 20/07 A2989 RMK A01 T02020067  RH  042%=      5-min Rain = 0
KHA2 242334Z 01006KT 20/07 A2989 RMK A01 T02020065  RH  041%=      5-min Rain = 0
KHA2 242335Z 01005KT 20/07 A2989 RMK A01 T02020069  RH  042%=      5-min Rain = 0
KHA2 242336Z 01005KT 20/07 A2989 RMK A01 T02020067  RH  041%=      5-min Rain = 0
KHA2 242337Z 01005KT 20/07 A2989 RMK A01 T02020066  RH  041%=      5-min Rain = 0
KHA2 242338Z 01004KT 20/06 A2989 RMK A01 T02020064  RH  041%=      5-min Rain = 0
KHA2 242339Z 01007KT 20/06 A2989 RMK A01 T02020064  RH  041%=      5-min Rain = 0
KHA2 242340Z 00006KT 20/06 A2989 RMK A01 T02020060  RH  040%=      5-min Rain = 0
KHA2 242341Z 01007KT 20/06 A2989 RMK A01 T02020064  RH  041%=      5-min Rain = 0
KHA2 242342Z 01008KT 20/07 A2989 RMK A01 T02020069  RH  042%=      5-min Rain = 0
KHA2 242343Z 35008KT 20/07 A2989 RMK A01 T02030068  RH  042%=      5-min Rain = 0
KHA2 242344Z 35007KT 20/06 A2989 RMK A01 T02020062  RH  040%=      5-min Rain = 0
KHA2 242345Z 35006KT 20/06 A2989 RMK A01 T02020060  RH  040%=      5-min Rain = 0
KHA2 242346Z 33007KT 20/06 A2989 RMK A01 T02020064  RH  041%=      5-min Rain = 0
KHA2 242347Z 34007KT 20/07 A2989 RMK A01 T02040068  RH  041%=      5-min Rain = 0
KHA2 242348Z 35007KT 21/06 A2989 RMK A01 T02050060  RH  039%=      5-min Rain = 0
KHA2 242349Z 35007KT 20/06 A2989 RMK A01 T02040064  RH  040%=      5-min Rain = 0
KHA2 242350Z 34005KT 20/07 A2989 RMK A01 T02020068  RH  042%=      5-min Rain = 0
KHA2 242351Z 35004KT 20/07 A2989 RMK A01 T02020066  RH  041%=      5-min Rain = 0
KHA2 242352Z 35004KT 20/06 A2989 RMK A01 T02020064  RH  041%=      5-min Rain = 0
KHA2 242353Z 00003KT 20/07 A2989 RMK A01 T02010066  RH  042%=      5-min Rain = 0
KHA2 242354Z 36004KT 20/06 A2989 RMK A01 T02010064  RH  041%=      5-min Rain = 0
KHA2 242355Z 35002KT 20/06 A2989 RMK A01 T02010062  RH  040%=      5-min Rain = 0
KHA2 242356Z 34003KT 20/07 A2989 RMK A01 T02010065  RH  041%=      5-min Rain = 0
KHA2 242357Z 34005KT 20/07 A2989 RMK A01 T02020069  RH  042%=      5-min Rain = 0
KHA2 242358Z 00005KT 20/07 A2989 RMK A01 T02030067  RH  041%=      5-min Rain = 0
KHA2 242359Z 34005KT 20/06 A2989 RMK A01 T02020064  RH  040%=      5-min Rain = 0
KHA2 250000Z 32007KT 20/07 A2989 RMK A01 T02010068  RH  042%=      5-min Rain = 0
KHA2 250001Z 34005KT 20/07 A2989 RMK A01 T02020067  RH  041%=      5-min Rain = 0
KHA2 250002Z 35005KT 20/07 A2989 RMK A01 T02030070  RH  042%=      5-min Rain = 0
KHA2 250003Z 36004KT 20/07 A2989 RMK A01 T02030072  RH  043%=      5-min Rain = 0
KHA2 250004Z 36007KT 20/08 A2989 RMK A01 T02030076  RH  044%=      5-min Rain = 0
KHA2 250005Z 33006KT 20/07 A2989 RMK A01 T02030071  RH  042%=      5-min Rain = 0
KHA2 250006Z 34005KT 20/07 A2989 RMK A01 T02020071  RH  043%=      5-min Rain = 0
KHA2 250007Z 34005KT 20/07 A2989 RMK A01 T02020071  RH  042%=      5-min Rain = 0
KHA2 250008Z 36005KT 20/07 A2989 RMK A01 T02020071  RH  042%=      5-min Rain = 0
KHA2 250009Z 34005KT 20/07 A2989 RMK A01 T02020068  RH  042%=      5-min Rain = 0
KHA2 250010Z 33005KT 20/07 A2989 RMK A01 T02010072  RH  043%=      5-min Rain = 0
KHA2 250011Z 30005KT 20/07 A2989 RMK A01 T02020071  RH  043%=      5-min Rain = 0
KHA2 250012Z 31005KT 20/07 A2989 RMK A01 T02020069  RH  042%=      5-min Rain = 0
KHA2 250013Z 33005KT 20/07 A2989 RMK A01 T02020071  RH  043%=      5-min Rain = 0
KHA2 250014Z 34004KT 20/07 A2989 RMK A01 T02020069  RH  042%=      5-min Rain = 0
KHA2 250015Z 35004KT 20/07 A2989 RMK A01 T02020071  RH  042%=      5-min Rain = 0
KHA2 250016Z 35004KT 20/07 A2989 RMK A01 T02020071  RH  043%=      5-min Rain = 0
KHA2 250017Z 34003KT 20/07 A2989 RMK A01 T02010073  RH  044%=      5-min Rain = 0
KHA2 250018Z 33004KT 20/07 A2989 RMK A01 T02000074  RH  044%=      5-min Rain = 0
KHA2 250019Z 33005KT 20/07 A2989 RMK A01 T02010072  RH  043%=      5-min Rain = 0
KHA2 250020Z 34004KT 20/07 A2989 RMK A01 T02020068  RH  042%=      5-min Rain = 0
KHA2 250021Z 33005KT 20/07 A2989 RMK A01 T02010070  RH  042%=      5-min Rain = 0
KHA2 250022Z 35007KT 20/07 A2989 RMK A01 T02010073  RH  043%=      5-min Rain = 0
KHA2 250023Z 35007KT 20/07 A2989 RMK A01 T02010071  RH  043%=      5-min Rain = 0
KHA2 250024Z 36006KT 20/07 A2989 RMK A01 T02000070  RH  043%=      5-min Rain = 0
KHA2 250025Z 36006KT 20/07 A2989 RMK A01 T01990071  RH  043%=      5-min Rain = 0
KHA2 250026Z 35008KT 20/07 A2989 RMK A01 T01990073  RH  044%=      5-min Rain = 0
KHA2 250027Z 34007KT 20/08 A2989 RMK A01 T01990076  RH  045%=      5-min Rain = 0
KHA2 250028Z 34007KT 20/08 A2989 RMK A01 T01990076  RH  045%=      5-min Rain = 0
KHA2 250029Z 34007KT 20/07 A2989 RMK A01 T02000072  RH  044%=      5-min Rain = 0
KHA2 250030Z 34006KT 20/07 A2989 RMK A01 T01990071  RH  043%=      5-min Rain = 0
KHA2 250031Z 34006KT 20/07 A2989 RMK A01 T01990070  RH  043%=      5-min Rain = 0
KHA2 250032Z 35006KT 20/07 A2989 RMK A01 T01990073  RH  044%=      5-min Rain = 0
KHA2 250033Z 35007KT 20/07 A2989 RMK A01 T01990070  RH  043%=      5-min Rain = 0
KHA2 250034Z 35007KT 20/07 A2989 RMK A01 T01980070  RH  043%=      5-min Rain = 0
KHA2 250035Z 35005KT 20/07 A2989 RMK A01 T01980072  RH  044%=      5-min Rain = 0
KHA2 250036Z 35005KT 20/07 A2989 RMK A01 T01980074  RH  045%=      5-min Rain = 0
KHA2 250037Z 35006KT 20/07 A2989 RMK A01 T01980070  RH  044%=      5-min Rain = 0
KHA2 250038Z 35005KT 20/07 A2989 RMK A01 T01980069  RH  043%=      5-min Rain = 0
KHA2 250039Z 34005KT 20/07 A2989 RMK A01 T01970071  RH  044%=      5-min Rain = 0
KHA2 250040Z 35005KT 20/08 A2989 RMK A01 T01970075  RH  045%=      5-min Rain = 0
KHA2 250041Z 36005KT 20/07 A2989 RMK A01 T01970074  RH  045%=      5-min Rain = 0
KHA2 250042Z 35004KT 20/08 A2989 RMK A01 T01970079  RH  046%=      5-min Rain = 0
KHA2 250043Z 35006KT 20/08 A2989 RMK A01 T01960081  RH  047%=      5-min Rain = 0
KHA2 250044Z 35006KT 20/08 A2988 RMK A01 T01960077  RH  046%=      5-min Rain = 0
KHA2 250045Z 35006KT 20/08 A2988 RMK A01 T01950077  RH  046%=      5-min Rain = 0
KHA2 250046Z 35006KT 20/08 A2988 RMK A01 T01950081  RH  048%=      5-min Rain = 0
KHA2 250047Z 35007KT 19/08 A2988 RMK A01 T01940081  RH  048%=      5-min Rain = 0
KHA2 250048Z 35007KT 19/08 A2988 RMK A01 T01930079  RH  047%=      5-min Rain = 0
KHA2 250049Z 35007KT 19/08 A2988 RMK A01 T01930079  RH  048%=      5-min Rain = 0
KHA2 250050Z 35006KT 19/08 A2988 RMK A01 T01930079  RH  048%=      5-min Rain = 0
KHA2 250051Z 35006KT 19/08 A2988 RMK A01 T01920080  RH  048%=      5-min Rain = 0
KHA2 250052Z 35005KT 19/08 A2988 RMK A01 T01920079  RH  048%=      5-min Rain = 0
KHA2 250053Z 35005KT 19/08 A2988 RMK A01 T01920080  RH  048%=      5-min Rain = 0
KHA2 250054Z 34005KT 19/08 A2988 RMK A01 T01920081  RH  049%=      5-min Rain = 0
KHA2 250055Z 34005KT 19/08 A2988 RMK A01 T01920080  RH  048%=      5-min Rain = 0
KHA2 250056Z 33004KT 19/08 A2988 RMK A01 T01920081  RH  049%=      5-min Rain = 0
KHA2 250057Z 33005KT 19/08 A2988 RMK A01 T01920081  RH  049%=      5-min Rain = 0
KHA2 250058Z 33005KT 19/08 A2988 RMK A01 T01920080  RH  048%=      5-min Rain = 0
KHA2 250059Z 33004KT 19/08 A2988 RMK A01 T01920080  RH  048%=      5-min Rain = 0
KHA2 250100Z 33005KT 19/08 A2988 RMK A01 T01920083  RH  049%=      5-min Rain = 0
KHA2 250101Z 33005KT 19/08 A2988 RMK A01 T01910080  RH  048%=      5-min Rain = 0
KHA2 250102Z 33005KT 19/08 A2988 RMK A01 T01910082  RH  049%=      5-min Rain = 0
KHA2 250103Z 33005KT 19/08 A2988 RMK A01 T01900083  RH  050%=      5-min Rain = 0
KHA2 250104Z 33005KT 19/08 A2988 RMK A01 T01900080  RH  049%=      5-min Rain = 0
KHA2 250105Z 34004KT 19/08 A2988 RMK A01 T01890084  RH  050%=      5-min Rain = 0
KHA2 250106Z 33004KT 19/08 A2988 RMK A01 T01890082  RH  050%=      5-min Rain = 0
KHA2 250107Z 33005KT 19/08 A2988 RMK A01 T01880081  RH  050%=      5-min Rain = 0
KHA2 250108Z 33005KT 19/08 A2988 RMK A01 T01870082  RH  050%=      5-min Rain = 0
KHA2 250109Z 33005KT 19/08 A2988 RMK A01 T01870081  RH  050%=      5-min Rain = 0
KHA2 250110Z 33005KT 19/08 A2988 RMK A01 T01860083  RH  051%=      5-min Rain = 0
KHA2 250111Z 33004KT 19/08 A2988 RMK A01 T01850084  RH  051%=      5-min Rain = 0
KHA2 250112Z 34004KT 18/09 A2988 RMK A01 T01840085  RH  052%=      5-min Rain = 0
KHA2 250113Z 34003KT 18/09 A2988 RMK A01 T01830085  RH  053%=      5-min Rain = 0
KHA2 250114Z 34003KT 18/09 A2988 RMK A01 T01830087  RH  054%=      5-min Rain = 0
KHA2 250115Z 34003KT 18/09 A2988 RMK A01 T01810086  RH  054%=      5-min Rain = 0
KHA2 250116Z 34003KT 18/09 A2988 RMK A01 T01810085  RH  054%=      5-min Rain = 0
KHA2 250117Z 34003KT 18/09 A2988 RMK A01 T01800088  RH  055%=      5-min Rain = 0
KHA2 250118Z 34003KT 18/09 A2989 RMK A01 T01790087  RH  055%=      5-min Rain = 0
KHA2 250119Z 35003KT 18/09 A2989 RMK A01 T01780092  RH  057%=      5-min Rain = 0
KHA2 250120Z 35003KT 18/09 A2989 RMK A01 T01760092  RH  058%=      5-min Rain = 0
KHA2 250121Z 35004KT 18/09 A2989 RMK A01 T01750086  RH  056%=      5-min Rain = 0
KHA2 250122Z 35004KT 17/09 A2989 RMK A01 T01740085  RH  056%=      5-min Rain = 0
KHA2 250123Z 35004KT 17/09 A2989 RMK A01 T01740085  RH  056%=      5-min Rain = 0
KHA2 250124Z 35004KT 17/09 A2989 RMK A01 T01740085  RH  056%=      5-min Rain = 0
KHA2 250125Z 34004KT 17/09 A2989 RMK A01 T01730086  RH  056%=      5-min Rain = 0
KHA2 250126Z 34003KT 17/09 A2989 RMK A01 T01730090  RH  058%=      5-min Rain = 0
KHA2 250127Z 34003KT 17/09 A2989 RMK A01 T01720088  RH  058%=      5-min Rain = 0
KHA2 250128Z 34003KT 17/09 A2989 RMK A01 T01720087  RH  058%=      5-min Rain = 0
KHA2 250129Z 35003KT 17/09 A2989 RMK A01 T01710088  RH  058%=      5-min Rain = 0
KHA2 250130Z 35003KT 17/09 A2989 RMK A01 T01710088  RH  058%=      5-min Rain = 0
KHA2 250131Z 35003KT 17/09 A2989 RMK A01 T01700087  RH  058%=      5-min Rain = 0
KHA2 250132Z 35003KT 17/09 A2989 RMK A01 T01700088  RH  058%=      5-min Rain = 0
KHA2 250133Z 35003KT 17/09 A2989 RMK A01 T01700086  RH  057%=      5-min Rain = 0
KHA2 250134Z 35003KT 17/08 A2989 RMK A01 T01700084  RH  057%=      5-min Rain = 0
KHA2 250135Z 35003KT 17/08 A2989 RMK A01 T01710083  RH  056%=      5-min Rain = 0
KHA2 250136Z 35003KT 17/08 A2989 RMK A01 T01710084  RH  056%=      5-min Rain = 0
KHA2 250137Z 35003KT 17/08 A2989 RMK A01 T01710084  RH  056%=      5-min Rain = 0
KHA2 250138Z 35002KT 17/08 A2989 RMK A01 T01710083  RH  056%=      5-min Rain = 0
KHA2 250139Z 35002KT 17/08 A2989 RMK A01 T01710083  RH  056%=      5-min Rain = 0
KHA2 250140Z 34002KT 17/08 A2989 RMK A01 T01710082  RH  056%=      5-min Rain = 0
KHA2 250141Z 34002KT 17/08 A2989 RMK A01 T01710083  RH  056%=      5-min Rain = 0
KHA2 250142Z 34002KT 17/08 A2989 RMK A01 T01710082  RH  056%=      5-min Rain = 0
KHA2 250143Z 34002KT 17/08 A2989 RMK A01 T01710082  RH  056%=      5-min Rain = 0
KHA2 250144Z 33002KT 17/09 A2989 RMK A01 T01710088  RH  058%=      5-min Rain = 0
KHA2 250145Z 33002KT 17/09 A2989 RMK A01 T01700090  RH  059%=      5-min Rain = 0
KHA2 250146Z 33002KT 17/09 A2989 RMK A01 T01700088  RH  058%=      5-min Rain = 0
KHA2 250147Z 33002KT 17/09 A2989 RMK A01 T01690089  RH  059%=      5-min Rain = 0
KHA2 250148Z 33002KT 17/09 A2989 RMK A01 T01690088  RH  058%=      5-min Rain = 0
KHA2 250149Z 34002KT 17/09 A2989 RMK A01 T01690089  RH  059%=      5-min Rain = 0
KHA2 250150Z 35001KT 17/09 A2989 RMK A01 T01690090  RH  060%=      5-min Rain = 0
KHA2 250151Z 35001KT 17/10 A2989 RMK A01 T01680101  RH  065%=      5-min Rain = 0
KHA2 250152Z 34001KT 17/09 A2989 RMK A01 T01660093  RH  062%=      5-min Rain = 0
KHA2 250153Z 34001KT 17/09 A299 RMK A01 T01660089  RH  060%=      5-min Rain = 0
KHA2 250154Z 34001KT 17/08 A299 RMK A01 T01650084  RH  059%=      5-min Rain = 0
KHA2 250155Z 34001KT 17/09 A299 RMK A01 T01650085  RH  059%=      5-min Rain = 0
KHA2 250156Z 34001KT 16/09 A299 RMK A01 T01640086  RH  060%=      5-min Rain = 0
KHA2 250157Z 34001KT 16/09 A299 RMK A01 T01640085  RH  060%=      5-min Rain = 0
KHA2 250158Z 34001KT 16/09 A299 RMK A01 T01640087  RH  060%=      5-min Rain = 0
KHA2 250159Z 34001KT 16/09 A299 RMK A01 T01640088  RH  061%=      5-min Rain = 0
KHA2 250200Z 34001KT 16/09 A299 RMK A01 T01640089  RH  061%=      5-min Rain = 0
KHA2 250201Z 34001KT 16/09 A299 RMK A01 T01640090  RH  061%=      5-min Rain = 0
KHA2 250202Z 34001KT 16/09 A299 RMK A01 T01630089  RH  061%=      5-min Rain = 0
KHA2 250203Z 34001KT 16/09 A299 RMK A01 T01640088  RH  061%=      5-min Rain = 0
KHA2 250204Z 34001KT 16/09 A299 RMK A01 T01640086  RH  060%=      5-min Rain = 0
KHA2 250205Z 34001KT 16/08 A299 RMK A01 T01640084  RH  059%=      5-min Rain = 0
KHA2 250206Z 34001KT 16/08 A299 RMK A01 T01640083  RH  059%=      5-min Rain = 0
KHA2 250207Z 34001KT 16/08 A299 RMK A01 T01640082  RH  058%=      5-min Rain = 0
KHA2 250208Z 35001KT 17/08 A299 RMK A01 T01650081  RH  057%=      5-min Rain = 0
KHA2 250209Z 35001KT 17/08 A299 RMK A01 T01660081  RH  057%=      5-min Rain = 0
KHA2 250210Z 35001KT 17/08 A299 RMK A01 T01660079  RH  056%=      5-min Rain = 0
KHA2 250211Z 35001KT 17/08 A299 RMK A01 T01660079  RH  056%=      5-min Rain = 0
KHA2 250212Z 35001KT 17/08 A299 RMK A01 T01670079  RH  056%=      5-min Rain = 0
KHA2 250213Z 35002KT 17/08 A299 RMK A01 T01670078  RH  056%=      5-min Rain = 0
KHA2 250214Z 35002KT 17/08 A299 RMK A01 T01670078  RH  056%=      5-min Rain = 0
KHA2 250215Z 35002KT 17/08 A299 RMK A01 T01670078  RH  056%=      5-min Rain = 0
KHA2 250216Z 35002KT 17/08 A299 RMK A01 T01670078  RH  056%=      5-min Rain = 0
KHA2 250217Z 35002KT 17/08 A299 RMK A01 T01670078  RH  056%=      5-min Rain = 0
KHA2 250218Z 35002KT 17/08 A299 RMK A01 T01670079  RH  056%=      5-min Rain = 0
KHA2 250219Z 34002KT 17/08 A299 RMK A01 T01670084  RH  058%=      5-min Rain = 0
KHA2 250220Z 34002KT 17/09 A299 RMK A01 T01670090  RH  060%=      5-min Rain = 0
KHA2 250221Z 34002KT 17/09 A299 RMK A01 T01660091  RH  061%=      5-min Rain = 0
KHA2 250222Z 34002KT 17/09 A299 RMK A01 T01650088  RH  061%=      5-min Rain = 0
KHA2 250223Z 34001KT 16/09 A299 RMK A01 T01640085  RH  060%=      5-min Rain = 0
KHA2 250224Z 34001KT 16/08 A299 RMK A01 T01640082  RH  058%=      5-min Rain = 0
KHA2 250225Z 34001KT 16/08 A299 RMK A01 T01640080  RH  058%=      5-min Rain = 0
KHA2 250226Z 34001KT 16/08 A299 RMK A01 T01640084  RH  059%=      5-min Rain = 0
KHA2 250227Z 34001KT 16/09 A299 RMK A01 T01640088  RH  061%=      5-min Rain = 0
KHA2 250228Z 34001KT 16/09 A299 RMK A01 T01620088  RH  061%=      5-min Rain = 0
KHA2 250229Z 34001KT 16/09 A299 RMK A01 T01610088  RH  062%=      5-min Rain = 0
KHA2 250230Z 34001KT 16/09 A299 RMK A01 T01600089  RH  063%=      5-min Rain = 0
KHA2 250231Z 34001KT 16/09 A299 RMK A01 T01590089  RH  063%=      5-min Rain = 0
KHA2 250232Z 34001KT 16/09 A299 RMK A01 T01580085  RH  062%=      5-min Rain = 0
KHA2 250233Z 34001KT 16/08 A299 RMK A01 T01580083  RH  061%=      5-min Rain = 0
KHA2 250234Z 34001KT 16/09 A299 RMK A01 T01580086  RH  062%=      5-min Rain = 0
KHA2 250235Z 34001KT 16/09 A299 RMK A01 T01580089  RH  063%=      5-min Rain = 0
KHA2 250236Z 34001KT 16/09 A299 RMK A01 T01570087  RH  063%=      5-min Rain = 0
KHA2 250237Z 34001KT 16/09 A299 RMK A01 T01560087  RH  063%=      5-min Rain = 0
KHA2 250238Z 34000KT 16/09 A299 RMK A01 T01550087  RH  064%=      5-min Rain = 0
KHA2 250239Z 34000KT 16/09 A299 RMK A01 T01550089  RH  065%=      5-min Rain = 0
KHA2 250240Z 00000KT 15/09 A299 RMK A01 T01540093  RH  067%=      5-min Rain = 0
KHA2 250241Z 00000KT 15/09 A299 RMK A01 T01510094  RH  069%=      5-min Rain = 0
KHA2 250242Z 00000KT 15/09 A299 RMK A01 T01490092  RH  069%=      5-min Rain = 0
KHA2 250243Z 00000KT 15/09 A299 RMK A01 T01460090  RH  069%=      5-min Rain = 0
KHA2 250244Z 00000KT 14/09 A299 RMK A01 T01430087  RH  069%=      5-min Rain = 0
KHA2 250245Z 00000KT 14/08 A299 RMK A01 T01410084  RH  068%=      5-min Rain = 0
KHA2 250246Z 00000KT 14/08 A299 RMK A01 T01390083  RH  069%=      5-min Rain = 0
KHA2 250247Z 00000KT 14/08 A299 RMK A01 T01380083  RH  069%=      5-min Rain = 0
KHA2 250248Z 00000KT 14/08 A299 RMK A01 T01380083  RH  069%=      5-min Rain = 0
KHA2 250249Z 00000KT 14/08 A2991 RMK A01 T01400083  RH  068%=      5-min Rain = 0
KHA2 250250Z 00000KT 14/08 A2991 RMK A01 T01430083  RH  067%=      5-min Rain = 0
KHA2 250251Z 00000KT 14/08 A2991 RMK A01 T01430084  RH  068%=      5-min Rain = 0
KHA2 250252Z 00000KT 14/09 A2991 RMK A01 T01430086  RH  069%=      5-min Rain = 0
KHA2 250253Z 00000KT 14/09 A2991 RMK A01 T01420086  RH  069%=      5-min Rain = 0
KHA2 250254Z 00000KT 14/09 A2991 RMK A01 T01410085  RH  069%=      5-min Rain = 0
KHA2 250255Z 00000KT 14/09 A2991 RMK A01 T01410086  RH  069%=      5-min Rain = 0
KHA2 250256Z 00000KT 14/09 A2991 RMK A01 T01410090  RH  071%=      5-min Rain = 0
KHA2 250257Z 00000KT 14/09 A2991 RMK A01 T01400089  RH  071%=      5-min Rain = 0
KHA2 250258Z 00000KT 14/09 A2991 RMK A01 T01400087  RH  070%=      5-min Rain = 0
KHA2 250259Z 00000KT 14/09 A2991 RMK A01 T01400088  RH  071%=      5-min Rain = 0
KHA2 250300Z 00000KT 14/09 A2991 RMK A01 T01410089  RH  071%=      5-min Rain = 0
KHA2 250301Z 00000KT 14/09 A2991 RMK A01 T01410085  RH  069%=      5-min Rain = 0
KHA2 250302Z 00000KT 14/09 A2991 RMK A01 T01430087  RH  069%=      5-min Rain = 0
KHA2 250303Z 00000KT 14/09 A2991 RMK A01 T01430087  RH  069%=      5-min Rain = 0
KHA2 250304Z 00000KT 14/09 A2991 RMK A01 T01440086  RH  068%=      5-min Rain = 0
KHA2 250305Z 00000KT 14/08 A2991 RMK A01 T01440083  RH  067%=      5-min Rain = 0
KHA2 250306Z 00000KT 15/08 A2991 RMK A01 T01450082  RH  066%=      5-min Rain = 0
KHA2 250307Z 00000KT 15/08 A2991 RMK A01 T01470081  RH  064%=      5-min Rain = 0
KHA2 250308Z 00000KT 15/08 A2991 RMK A01 T01490081  RH  064%=      5-min Rain = 0
KHA2 250309Z 00000KT 15/08 A2991 RMK A01 T01490083  RH  065%=      5-min Rain = 0
KHA2 250310Z 00000KT 15/09 A2991 RMK A01 T01500088  RH  066%=      5-min Rain = 0
KHA2 250311Z 34000KT 15/09 A2991 RMK A01 T01490091  RH  068%=      5-min Rain = 0
KHA2 250312Z 34001KT 15/10 A2991 RMK A01 T01480096  RH  071%=      5-min Rain = 0
KHA2 250313Z 33001KT 15/09 A2991 RMK A01 T01470094  RH  070%=      5-min Rain = 0
KHA2 250314Z 33001KT 15/09 A2991 RMK A01 T01460085  RH  067%=      5-min Rain = 0
KHA2 250315Z 33001KT 15/08 A2991 RMK A01 T01460083  RH  066%=      5-min Rain = 0
KHA2 250316Z 32002KT 15/09 A2991 RMK A01 T01470091  RH  069%=      5-min Rain = 0
KHA2 250317Z 32002KT 15/09 A2991 RMK A01 T01470087  RH  067%=      5-min Rain = 0
KHA2 250318Z 31002KT 15/09 A2991 RMK A01 T01470085  RH  067%=      5-min Rain = 0
KHA2 250319Z 31002KT 15/09 A2991 RMK A01 T01470086  RH  067%=      5-min Rain = 0
KHA2 250320Z 31002KT 15/09 A2991 RMK A01 T01460087  RH  067%=      5-min Rain = 0
KHA2 250321Z 31002KT 15/09 A2991 RMK A01 T01450087  RH  068%=      5-min Rain = 0
KHA2 250322Z 31002KT 15/09 A2991 RMK A01 T01450087  RH  068%=      5-min Rain = 0
KHA2 250323Z 31002KT 14/09 A2991 RMK A01 T01430087  RH  069%=      5-min Rain = 0
KHA2 250324Z 31002KT 14/08 A2991 RMK A01 T01420084  RH  068%=      5-min Rain = 0
KHA2 250325Z 31002KT 14/08 A2991 RMK A01 T01420083  RH  067%=      5-min Rain = 0
KHA2 250326Z 31002KT 14/08 A2991 RMK A01 T01420083  RH  068%=      5-min Rain = 0
KHA2 250327Z 31002KT 14/08 A2991 RMK A01 T01420084  RH  068%=      5-min Rain = 0
KHA2 250328Z 31003KT 14/09 A2991 RMK A01 T01410086  RH  069%=      5-min Rain = 0
KHA2 250329Z 31003KT 14/09 A2991 RMK A01 T01400088  RH  070%=      5-min Rain = 0
KHA2 250330Z 31003KT 14/09 A2991 RMK A01 T01400087  RH  070%=      5-min Rain = 0
KHA2 250331Z 31003KT 14/09 A2992 RMK A01 T01390088  RH  071%=      5-min Rain = 0
KHA2 250332Z 30003KT 14/09 A2992 RMK A01 T01390089  RH  072%=      5-min Rain = 0
KHA2 250333Z 29003KT 14/09 A2992 RMK A01 T01380089  RH  072%=      5-min Rain = 0
KHA2 250334Z 29003KT 14/09 A2992 RMK A01 T01370090  RH  073%=      5-min Rain = 0
KHA2 250335Z 29003KT 14/09 A2992 RMK A01 T01360090  RH  074%=      5-min Rain = 0
KHA2 250336Z 29003KT 14/09 A2992 RMK A01 T01360089  RH  073%=      5-min Rain = 0
KHA2 250337Z 29003KT 14/09 A2992 RMK A01 T01360089  RH  073%=      5-min Rain = 0
KHA2 250338Z 29002KT 14/09 A2992 RMK A01 T01360091  RH  074%=      5-min Rain = 0
KHA2 250339Z 29003KT 14/09 A2992 RMK A01 T01350092  RH  075%=      5-min Rain = 0
KHA2 250340Z 29003KT 13/09 A2992 RMK A01 T01340088  RH  073%=      5-min Rain = 0
KHA2 250341Z 29003KT 14/09 A2992 RMK A01 T01350087  RH  073%=      5-min Rain = 0
KHA2 250342Z 29003KT 14/09 A2992 RMK A01 T01360088  RH  073%=      5-min Rain = 0
KHA2 250343Z 28003KT 14/09 A2992 RMK A01 T01360090  RH  074%=      5-min Rain = 0
KHA2 250344Z 28003KT 13/09 A2992 RMK A01 T01340090  RH  074%=      5-min Rain = 0
KHA2 250345Z 28003KT 13/09 A2992 RMK A01 T01330090  RH  075%=      5-min Rain = 0
KHA2 250346Z 28003KT 13/09 A2992 RMK A01 T01310089  RH  076%=      5-min Rain = 0
KHA2 250347Z 29004KT 13/09 A2992 RMK A01 T01310088  RH  075%=      5-min Rain = 0
KHA2 250348Z 29004KT 13/09 A2992 RMK A01 T01300088  RH  076%=      5-min Rain = 0
KHA2 250349Z 29004KT 13/09 A2992 RMK A01 T01290088  RH  076%=      5-min Rain = 0
KHA2 250350Z 29004KT 13/09 A2992 RMK A01 T01290089  RH  077%=      5-min Rain = 0
KHA2 250351Z 29003KT 13/09 A2991 RMK A01 T01290089  RH  077%=      5-min Rain = 0
KHA2 250352Z 28003KT 13/09 A2991 RMK A01 T01290087  RH  076%=      5-min Rain = 0
KHA2 250353Z 28004KT 13/09 A2991 RMK A01 T01300087  RH  075%=      5-min Rain = 0
KHA2 250354Z 28004KT 13/09 A2991 RMK A01 T01310085  RH  074%=      5-min Rain = 0
KHA2 250355Z 28004KT 13/08 A2991 RMK A01 T01320083  RH  072%=      5-min Rain = 0
KHA2 250356Z 28005KT 14/08 A2991 RMK A01 T01350083  RH  071%=      5-min Rain = 0
KHA2 250357Z 28005KT 14/08 A2991 RMK A01 T01360083  RH  070%=      5-min Rain = 0
KHA2 250358Z 28004KT 14/08 A2991 RMK A01 T01360084  RH  071%=      5-min Rain = 0
KHA2 250359Z 28005KT 14/08 A2991 RMK A01 T01360084  RH  071%=      5-min Rain = 0
KHA2 250400Z 28004KT 14/08 A2991 RMK A01 T01360084  RH  071%=      5-min Rain = 0
KHA2 250401Z 28004KT 14/08 A2991 RMK A01 T01360082  RH  070%=      5-min Rain = 0
KHA2 250402Z 28004KT 14/08 A2991 RMK A01 T01360082  RH  070%=      5-min Rain = 0
KHA2 250403Z 28004KT 14/08 A2991 RMK A01 T01370081  RH  069%=      5-min Rain = 0
KHA2 250404Z 28004KT 14/08 A2991 RMK A01 T01370081  RH  069%=      5-min Rain = 0
KHA2 250405Z 28004KT 14/08 A2991 RMK A01 T01380079  RH  067%=      5-min Rain = 0
KHA2 250406Z 28004KT 14/08 A2991 RMK A01 T01390078  RH  067%=      5-min Rain = 0
KHA2 250407Z 28004KT 14/08 A2991 RMK A01 T01390078  RH  067%=      5-min Rain = 0
KHA2 250408Z 28004KT 14/08 A2991 RMK A01 T01400077  RH  066%=      5-min Rain = 0
KHA2 250409Z 28004KT 14/08 A2991 RMK A01 T01410076  RH  065%=      5-min Rain = 0
KHA2 250410Z 28004KT 14/07 A2991 RMK A01 T01420074  RH  064%=      5-min Rain = 0
KHA2 250411Z 28004KT 14/07 A2992 RMK A01 T01430074  RH  063%=      5-min Rain = 0
KHA2 250412Z 29004KT 15/07 A2992 RMK A01 T01450074  RH  063%=      5-min Rain = 0
KHA2 250413Z 29004KT 15/07 A2992 RMK A01 T01450074  RH  062%=      5-min Rain = 0
KHA2 250414Z 29003KT 15/07 A2992 RMK A01 T01460073  RH  062%=      5-min Rain = 0
KHA2 250415Z 31003KT 15/07 A2992 RMK A01 T01460074  RH  062%=      5-min Rain = 0
KHA2 250416Z 02006KT 14/08 A2992 RMK A01 T01410079  RH  067%=      5-min Rain = 0
KHA2 250417Z 36005KT 13/08 A2992 RMK A01 T01270079  RH  073%=      5-min Rain = 0
KHA2 250418Z 34003KT 12/08 A2992 RMK A01 T01190079  RH  076%=      5-min Rain = 0
KHA2 250419Z 33003KT 12/08 A2992 RMK A01 T01150080  RH  079%=      5-min Rain = 0
KHA2 250420Z 35005KT 11/08 A2992 RMK A01 T01140081  RH  080%=      5-min Rain = 0
KHA2 250421Z 34004KT 11/08 A2992 RMK A01 T01140082  RH  081%=      5-min Rain = 0
KHA2 250422Z 33003KT 11/08 A2992 RMK A01 T01140082  RH  081%=      5-min Rain = 0
KHA2 250423Z 32003KT 11/08 A2992 RMK A01 T01140082  RH  080%=      5-min Rain = 0
KHA2 250424Z 33005KT 12/08 A2992 RMK A01 T01150082  RH  080%=      5-min Rain = 0
KHA2 250425Z 33005KT 12/08 A2991 RMK A01 T01160084  RH  080%=      5-min Rain = 0
KHA2 250426Z 32004KT 12/08 A2991 RMK A01 T01160084  RH  081%=      5-min Rain = 0
KHA2 250427Z 32004KT 12/08 A2991 RMK A01 T01160083  RH  080%=      5-min Rain = 0
KHA2 250428Z 32004KT 12/08 A2991 RMK A01 T01170083  RH  080%=      5-min Rain = 0
KHA2 250429Z 32004KT 12/08 A2991 RMK A01 T01170084  RH  080%=      5-min Rain = 0
KHA2 250430Z 32004KT 12/09 A2991 RMK A01 T01170085  RH  080%=      5-min Rain = 0
KHA2 250431Z 32004KT 12/09 A2991 RMK A01 T01170085  RH  081%=      5-min Rain = 0
KHA2 250432Z 32004KT 12/09 A2991 RMK A01 T01160085  RH  082%=      5-min Rain = 0
KHA2 250433Z 33004KT 12/09 A2991 RMK A01 T01150085  RH  082%=      5-min Rain = 0
KHA2 250434Z 34004KT 12/08 A2991 RMK A01 T01150083  RH  080%=      5-min Rain = 0
KHA2 250435Z 32004KT 12/08 A2991 RMK A01 T01160082  RH  079%=      5-min Rain = 0
KHA2 250436Z 32005KT 12/08 A2991 RMK A01 T01160082  RH  079%=      5-min Rain = 0
KHA2 250437Z 32005KT 12/08 A2991 RMK A01 T01160083  RH  080%=      5-min Rain = 0
KHA2 250438Z 31004KT 12/08 A2991 RMK A01 T01160082  RH  080%=      5-min Rain = 0
KHA2 250439Z 32005KT 12/08 A2991 RMK A01 T01150082  RH  080%=      5-min Rain = 0
KHA2 250440Z 32005KT 12/08 A2991 RMK A01 T01150083  RH  081%=      5-min Rain = 0
KHA2 250441Z 32005KT 11/08 A2991 RMK A01 T01140084  RH  081%=      5-min Rain = 0
KHA2 250442Z 32005KT 11/08 A2991 RMK A01 T01140084  RH  082%=      5-min Rain = 0
KHA2 250443Z 32005KT 11/09 A2991 RMK A01 T01140085  RH  082%=      5-min Rain = 0
KHA2 250444Z 32005KT 11/09 A2991 RMK A01 T01130085  RH  083%=      5-min Rain = 0
KHA2 250445Z 32005KT 11/09 A2991 RMK A01 T01130085  RH  083%=      5-min Rain = 0
KHA2 250446Z 32005KT 11/09 A2991 RMK A01 T01130085  RH  083%=      5-min Rain = 0
KHA2 250447Z 32004KT 11/09 A299 RMK A01 T01130085  RH  083%=      5-min Rain = 0
KHA2 250448Z 33004KT 11/09 A299 RMK A01 T01120085  RH  083%=      5-min Rain = 0
KHA2 250449Z 33004KT 11/09 A299 RMK A01 T01120085  RH  083%=      5-min Rain = 0
KHA2 250450Z 33004KT 11/09 A299 RMK A01 T01110085  RH  084%=      5-min Rain = 0
KHA2 250451Z 33004KT 11/09 A299 RMK A01 T01110085  RH  084%=      5-min Rain = 0
KHA2 250452Z 33004KT 11/09 A2991 RMK A01 T01110085  RH  084%=      5-min Rain = 0
KHA2 250453Z 32004KT 11/09 A2991 RMK A01 T01100085  RH  084%=      5-min Rain = 0
KHA2 250454Z 32004KT 11/09 A2991 RMK A01 T01100085  RH  084%=      5-min Rain = 0
KHA2 250455Z 32004KT 11/09 A2991 RMK A01 T01100085  RH  085%=      5-min Rain = 0
KHA2 250456Z 31005KT 11/08 A2991 RMK A01 T01090084  RH  085%=      5-min Rain = 0
KHA2 250457Z 31005KT 11/08 A2991 RMK A01 T01090084  RH  085%=      5-min Rain = 0
KHA2 250458Z 31005KT 11/08 A2991 RMK A01 T01080084  RH  085%=      5-min Rain = 0
KHA2 250459Z 31005KT 11/08 A2991 RMK A01 T01080084  RH  085%=      5-min Rain = 0

Page generated in 0.0337 seconds.